<?xml version="1.0" encoding="UTF-8" standalone="no" ?>
<gpx xmlns="http://www.topografix.com/GPX/1/1" xmlns:xsi="http://www.w3.org/2001/XMLSchema-instance" xsi:schemaLocation="http://www.topografix.com/GPX/1/1 http://www.topografix.com/GPX/1/1/gpx.xsd" version="1.1" creator="VisuGPX - https://www.visugpx.com">
  <metadata>
    <name>Riverie Saint André la Cote</name>
    <desc><![CDATA[Riverie Saint André la Cote avec Alain Dubois       ]]></desc>
  </metadata>
  <wpt lat="45.5981" lon="4.58882">
    <ele>710</ele>
  </wpt>
  <wpt lat="45.60208" lon="4.58908">
    <ele>716</ele>
  </wpt>
  <trk>
    <name><![CDATA[Riverie Saint André la Cote_1]]></name>
    <trkseg>
      <trkpt lat="45.5981" lon="4.58882">
        <ele>710</ele>
        <time>2009-09-29T06:02:50Z</time>
      </trkpt>
      <trkpt lat="45.60748" lon="4.59001">
        <ele>763</ele>
        <time>2009-09-29T06:04:51Z</time>
      </trkpt>
      <trkpt lat="45.60757" lon="4.58996">
        <ele>764</ele>
        <time>2009-09-29T06:04:53Z</time>
      </trkpt>
      <trkpt lat="45.60765" lon="4.58988">
        <ele>765</ele>
        <time>2009-09-29T06:04:56Z</time>
      </trkpt>
      <trkpt lat="45.60773" lon="4.58995">
        <ele>766</ele>
        <time>2009-09-29T06:05:07Z</time>
      </trkpt>
      <trkpt lat="45.60783" lon="4.58994">
        <ele>766</ele>
        <time>2009-09-29T06:05:14Z</time>
      </trkpt>
      <trkpt lat="45.60793" lon="4.58993">
        <ele>766</ele>
        <time>2009-09-29T06:05:22Z</time>
      </trkpt>
      <trkpt lat="45.60803" lon="4.58995">
        <ele>767</ele>
        <time>2009-09-29T06:05:31Z</time>
      </trkpt>
      <trkpt lat="45.60813" lon="4.58995">
        <ele>767</ele>
        <time>2009-09-29T06:05:38Z</time>
      </trkpt>
      <trkpt lat="45.60822" lon="4.59">
        <ele>766</ele>
        <time>2009-09-29T06:05:45Z</time>
      </trkpt>
      <trkpt lat="45.60829" lon="4.5901">
        <ele>765</ele>
        <time>2009-09-29T06:05:53Z</time>
      </trkpt>
      <trkpt lat="45.60839" lon="4.59014">
        <ele>768</ele>
        <time>2009-09-29T06:06:01Z</time>
      </trkpt>
      <trkpt lat="45.60842" lon="4.59027">
        <ele>769</ele>
        <time>2009-09-29T06:06:09Z</time>
      </trkpt>
      <trkpt lat="45.60852" lon="4.59023">
        <ele>769</ele>
        <time>2009-09-29T06:06:24Z</time>
      </trkpt>
      <trkpt lat="45.60861" lon="4.59027">
        <ele>770</ele>
        <time>2009-09-29T06:06:32Z</time>
      </trkpt>
      <trkpt lat="45.60872" lon="4.59023">
        <ele>771</ele>
        <time>2009-09-29T06:06:43Z</time>
      </trkpt>
      <trkpt lat="45.60882" lon="4.59025">
        <ele>771</ele>
        <time>2009-09-29T06:06:53Z</time>
      </trkpt>
      <trkpt lat="45.6089" lon="4.5903">
        <ele>772</ele>
        <time>2009-09-29T06:07:02Z</time>
      </trkpt>
      <trkpt lat="45.609" lon="4.59035">
        <ele>772</ele>
        <time>2009-09-29T06:07:12Z</time>
      </trkpt>
      <trkpt lat="45.60909" lon="4.59041">
        <ele>772</ele>
        <time>2009-09-29T06:07:21Z</time>
      </trkpt>
      <trkpt lat="45.60918" lon="4.59041">
        <ele>778</ele>
        <time>2009-09-29T06:07:27Z</time>
      </trkpt>
      <trkpt lat="45.60927" lon="4.59047">
        <ele>778</ele>
        <time>2009-09-29T06:07:35Z</time>
      </trkpt>
      <trkpt lat="45.60936" lon="4.59044">
        <ele>779</ele>
        <time>2009-09-29T06:07:40Z</time>
      </trkpt>
      <trkpt lat="45.60947" lon="4.59036">
        <ele>779</ele>
        <time>2009-09-29T06:07:45Z</time>
      </trkpt>
      <trkpt lat="45.60955" lon="4.59044">
        <ele>780</ele>
        <time>2009-09-29T06:07:55Z</time>
      </trkpt>
      <trkpt lat="45.60965" lon="4.59047">
        <ele>780</ele>
        <time>2009-09-29T06:08:04Z</time>
      </trkpt>
      <trkpt lat="45.60975" lon="4.59047">
        <ele>781</ele>
        <time>2009-09-29T06:08:11Z</time>
      </trkpt>
      <trkpt lat="45.60985" lon="4.59048">
        <ele>781</ele>
        <time>2009-09-29T06:08:19Z</time>
      </trkpt>
      <trkpt lat="45.60997" lon="4.59043">
        <ele>782</ele>
        <time>2009-09-29T06:08:25Z</time>
      </trkpt>
      <trkpt lat="45.61004" lon="4.59052">
        <ele>788</ele>
        <time>2009-09-29T06:08:33Z</time>
      </trkpt>
      <trkpt lat="45.61012" lon="4.59058">
        <ele>788</ele>
        <time>2009-09-29T06:08:43Z</time>
      </trkpt>
      <trkpt lat="45.61025" lon="4.59054">
        <ele>789</ele>
        <time>2009-09-29T06:08:51Z</time>
      </trkpt>
      <trkpt lat="45.61034" lon="4.5905">
        <ele>789</ele>
        <time>2009-09-29T06:08:56Z</time>
      </trkpt>
      <trkpt lat="45.61043" lon="4.5905">
        <ele>790</ele>
        <time>2009-09-29T06:09:03Z</time>
      </trkpt>
      <trkpt lat="45.61044" lon="4.59064">
        <ele>790</ele>
        <time>2009-09-29T06:09:10Z</time>
      </trkpt>
      <trkpt lat="45.61053" lon="4.59068">
        <ele>791</ele>
        <time>2009-09-29T06:09:17Z</time>
      </trkpt>
      <trkpt lat="45.61061" lon="4.59076">
        <ele>792</ele>
        <time>2009-09-29T06:09:25Z</time>
      </trkpt>
      <trkpt lat="45.61069" lon="4.59083">
        <ele>793</ele>
        <time>2009-09-29T06:09:34Z</time>
      </trkpt>
      <trkpt lat="45.61077" lon="4.5909">
        <ele>793</ele>
        <time>2009-09-29T06:09:43Z</time>
      </trkpt>
      <trkpt lat="45.61084" lon="4.59099">
        <ele>799</ele>
        <time>2009-09-29T06:09:51Z</time>
      </trkpt>
      <trkpt lat="45.61093" lon="4.59106">
        <ele>800</ele>
        <time>2009-09-29T06:10:00Z</time>
      </trkpt>
      <trkpt lat="45.61101" lon="4.59113">
        <ele>801</ele>
        <time>2009-09-29T06:10:08Z</time>
      </trkpt>
      <trkpt lat="45.6111" lon="4.59119">
        <ele>802</ele>
        <time>2009-09-29T06:10:18Z</time>
      </trkpt>
      <trkpt lat="45.61119" lon="4.59121">
        <ele>803</ele>
        <time>2009-09-29T06:10:26Z</time>
      </trkpt>
      <trkpt lat="45.61129" lon="4.59126">
        <ele>804</ele>
        <time>2009-09-29T06:10:34Z</time>
      </trkpt>
      <trkpt lat="45.61138" lon="4.59132">
        <ele>805</ele>
        <time>2009-09-29T06:10:43Z</time>
      </trkpt>
      <trkpt lat="45.61144" lon="4.59142">
        <ele>807</ele>
        <time>2009-09-29T06:10:52Z</time>
      </trkpt>
      <trkpt lat="45.61151" lon="4.59151">
        <ele>808</ele>
        <time>2009-09-29T06:11:01Z</time>
      </trkpt>
      <trkpt lat="45.6116" lon="4.59159">
        <ele>810</ele>
        <time>2009-09-29T06:11:11Z</time>
      </trkpt>
      <trkpt lat="45.61167" lon="4.59168">
        <ele>814</ele>
        <time>2009-09-29T06:11:20Z</time>
      </trkpt>
      <trkpt lat="45.61176" lon="4.5917">
        <ele>817</ele>
        <time>2009-09-29T06:11:28Z</time>
      </trkpt>
      <trkpt lat="45.61186" lon="4.59172">
        <ele>819</ele>
        <time>2009-09-29T06:11:36Z</time>
      </trkpt>
      <trkpt lat="45.61188" lon="4.59186">
        <ele>819</ele>
        <time>2009-09-29T06:11:44Z</time>
      </trkpt>
      <trkpt lat="45.61193" lon="4.59198">
        <ele>820</ele>
        <time>2009-09-29T06:11:53Z</time>
      </trkpt>
      <trkpt lat="45.61197" lon="4.59212">
        <ele>820</ele>
        <time>2009-09-29T06:12:01Z</time>
      </trkpt>
      <trkpt lat="45.61204" lon="4.59221">
        <ele>821</ele>
        <time>2009-09-29T06:12:10Z</time>
      </trkpt>
      <trkpt lat="45.61214" lon="4.59224">
        <ele>822</ele>
        <time>2009-09-29T06:12:19Z</time>
      </trkpt>
      <trkpt lat="45.61223" lon="4.59231">
        <ele>823</ele>
        <time>2009-09-29T06:12:29Z</time>
      </trkpt>
      <trkpt lat="45.61228" lon="4.59242">
        <ele>824</ele>
        <time>2009-09-29T06:12:38Z</time>
      </trkpt>
      <trkpt lat="45.61237" lon="4.59248">
        <ele>826</ele>
        <time>2009-09-29T06:12:49Z</time>
      </trkpt>
      <trkpt lat="45.61245" lon="4.59252">
        <ele>826</ele>
        <time>2009-09-29T06:12:57Z</time>
      </trkpt>
      <trkpt lat="45.61255" lon="4.59257">
        <ele>829</ele>
        <time>2009-09-29T06:13:10Z</time>
      </trkpt>
      <trkpt lat="45.61264" lon="4.59255">
        <ele>829</ele>
        <time>2009-09-29T06:13:18Z</time>
      </trkpt>
      <trkpt lat="45.61274" lon="4.59256">
        <ele>830</ele>
        <time>2009-09-29T06:13:27Z</time>
      </trkpt>
      <trkpt lat="45.61284" lon="4.5926">
        <ele>830</ele>
        <time>2009-09-29T06:13:38Z</time>
      </trkpt>
      <trkpt lat="45.61293" lon="4.59264">
        <ele>831</ele>
        <time>2009-09-29T06:13:48Z</time>
      </trkpt>
      <trkpt lat="45.61303" lon="4.59263">
        <ele>833</ele>
        <time>2009-09-29T06:13:58Z</time>
      </trkpt>
      <trkpt lat="45.61313" lon="4.59265">
        <ele>834</ele>
        <time>2009-09-29T06:14:07Z</time>
      </trkpt>
      <trkpt lat="45.61322" lon="4.59268">
        <ele>835</ele>
        <time>2009-09-29T06:14:16Z</time>
      </trkpt>
      <trkpt lat="45.61329" lon="4.59277">
        <ele>834</ele>
        <time>2009-09-29T06:14:25Z</time>
      </trkpt>
      <trkpt lat="45.61338" lon="4.59278">
        <ele>841</ele>
        <time>2009-09-29T06:14:33Z</time>
      </trkpt>
      <trkpt lat="45.61348" lon="4.59278">
        <ele>841</ele>
        <time>2009-09-29T06:14:40Z</time>
      </trkpt>
      <trkpt lat="45.61357" lon="4.59283">
        <ele>841</ele>
        <time>2009-09-29T06:14:49Z</time>
      </trkpt>
      <trkpt lat="45.61366" lon="4.5929">
        <ele>841</ele>
        <time>2009-09-29T06:14:57Z</time>
      </trkpt>
      <trkpt lat="45.61375" lon="4.59297">
        <ele>841</ele>
        <time>2009-09-29T06:15:06Z</time>
      </trkpt>
      <trkpt lat="45.61384" lon="4.593">
        <ele>841</ele>
        <time>2009-09-29T06:15:14Z</time>
      </trkpt>
      <trkpt lat="45.61394" lon="4.59301">
        <ele>841</ele>
        <time>2009-09-29T06:15:23Z</time>
      </trkpt>
      <trkpt lat="45.61404" lon="4.59302">
        <ele>842</ele>
        <time>2009-09-29T06:15:31Z</time>
      </trkpt>
      <trkpt lat="45.61414" lon="4.59306">
        <ele>842</ele>
        <time>2009-09-29T06:15:40Z</time>
      </trkpt>
      <trkpt lat="45.61424" lon="4.59307">
        <ele>846</ele>
        <time>2009-09-29T06:15:48Z</time>
      </trkpt>
      <trkpt lat="45.61433" lon="4.59308">
        <ele>846</ele>
        <time>2009-09-29T06:15:56Z</time>
      </trkpt>
      <trkpt lat="45.61443" lon="4.59309">
        <ele>847</ele>
        <time>2009-09-29T06:16:04Z</time>
      </trkpt>
      <trkpt lat="45.61453" lon="4.5931">
        <ele>848</ele>
        <time>2009-09-29T06:16:12Z</time>
      </trkpt>
      <trkpt lat="45.61462" lon="4.59311">
        <ele>848</ele>
        <time>2009-09-29T06:16:20Z</time>
      </trkpt>
      <trkpt lat="45.61472" lon="4.5931">
        <ele>849</ele>
        <time>2009-09-29T06:16:28Z</time>
      </trkpt>
      <trkpt lat="45.61482" lon="4.59309">
        <ele>849</ele>
        <time>2009-09-29T06:16:36Z</time>
      </trkpt>
      <trkpt lat="45.61491" lon="4.59312">
        <ele>849</ele>
        <time>2009-09-29T06:16:45Z</time>
      </trkpt>
      <trkpt lat="45.61501" lon="4.59314">
        <ele>852</ele>
        <time>2009-09-29T06:16:54Z</time>
      </trkpt>
      <trkpt lat="45.6151" lon="4.59315">
        <ele>852</ele>
        <time>2009-09-29T06:17:02Z</time>
      </trkpt>
      <trkpt lat="45.6152" lon="4.59318">
        <ele>852</ele>
        <time>2009-09-29T06:17:12Z</time>
      </trkpt>
      <trkpt lat="45.6153" lon="4.59319">
        <ele>853</ele>
        <time>2009-09-29T06:17:21Z</time>
      </trkpt>
      <trkpt lat="45.6154" lon="4.59321">
        <ele>853</ele>
        <time>2009-09-29T06:17:30Z</time>
      </trkpt>
      <trkpt lat="45.6155" lon="4.59322">
        <ele>854</ele>
        <time>2009-09-29T06:17:39Z</time>
      </trkpt>
      <trkpt lat="45.6156" lon="4.59325">
        <ele>855</ele>
        <time>2009-09-29T06:17:48Z</time>
      </trkpt>
      <trkpt lat="45.61569" lon="4.59325">
        <ele>855</ele>
        <time>2009-09-29T06:17:55Z</time>
      </trkpt>
      <trkpt lat="45.6158" lon="4.59326">
        <ele>856</ele>
        <time>2009-09-29T06:18:03Z</time>
      </trkpt>
      <trkpt lat="45.6159" lon="4.59328">
        <ele>857</ele>
        <time>2009-09-29T06:18:11Z</time>
      </trkpt>
      <trkpt lat="45.61599" lon="4.59331">
        <ele>857</ele>
        <time>2009-09-29T06:18:19Z</time>
      </trkpt>
      <trkpt lat="45.61609" lon="4.59334">
        <ele>858</ele>
        <time>2009-09-29T06:18:28Z</time>
      </trkpt>
      <trkpt lat="45.61619" lon="4.59334">
        <ele>858</ele>
        <time>2009-09-29T06:18:36Z</time>
      </trkpt>
      <trkpt lat="45.61629" lon="4.59334">
        <ele>858</ele>
        <time>2009-09-29T06:18:43Z</time>
      </trkpt>
      <trkpt lat="45.61639" lon="4.59337">
        <ele>858</ele>
        <time>2009-09-29T06:18:51Z</time>
      </trkpt>
      <trkpt lat="45.6165" lon="4.59337">
        <ele>858</ele>
        <time>2009-09-29T06:18:58Z</time>
      </trkpt>
      <trkpt lat="45.61659" lon="4.59337">
        <ele>858</ele>
        <time>2009-09-29T06:19:05Z</time>
      </trkpt>
      <trkpt lat="45.6167" lon="4.59339">
        <ele>858</ele>
        <time>2009-09-29T06:19:13Z</time>
      </trkpt>
      <trkpt lat="45.6168" lon="4.5934">
        <ele>859</ele>
        <time>2009-09-29T06:19:20Z</time>
      </trkpt>
      <trkpt lat="45.61689" lon="4.59341">
        <ele>859</ele>
        <time>2009-09-29T06:19:28Z</time>
      </trkpt>
      <trkpt lat="45.61699" lon="4.59344">
        <ele>859</ele>
        <time>2009-09-29T06:19:35Z</time>
      </trkpt>
      <trkpt lat="45.61709" lon="4.59343">
        <ele>859</ele>
        <time>2009-09-29T06:19:41Z</time>
      </trkpt>
      <trkpt lat="45.61719" lon="4.59345">
        <ele>858</ele>
        <time>2009-09-29T06:19:49Z</time>
      </trkpt>
      <trkpt lat="45.61729" lon="4.59348">
        <ele>858</ele>
        <time>2009-09-29T06:19:56Z</time>
      </trkpt>
      <trkpt lat="45.61738" lon="4.5935">
        <ele>858</ele>
        <time>2009-09-29T06:20:03Z</time>
      </trkpt>
      <trkpt lat="45.61748" lon="4.59354">
        <ele>858</ele>
        <time>2009-09-29T06:20:10Z</time>
      </trkpt>
      <trkpt lat="45.61757" lon="4.59357">
        <ele>858</ele>
        <time>2009-09-29T06:20:17Z</time>
      </trkpt>
      <trkpt lat="45.61767" lon="4.59357">
        <ele>858</ele>
        <time>2009-09-29T06:20:24Z</time>
      </trkpt>
      <trkpt lat="45.61776" lon="4.5936">
        <ele>859</ele>
        <time>2009-09-29T06:20:31Z</time>
      </trkpt>
      <trkpt lat="45.61786" lon="4.5936">
        <ele>859</ele>
        <time>2009-09-29T06:20:38Z</time>
      </trkpt>
      <trkpt lat="45.61797" lon="4.59361">
        <ele>859</ele>
        <time>2009-09-29T06:20:45Z</time>
      </trkpt>
      <trkpt lat="45.61806" lon="4.59362">
        <ele>859</ele>
        <time>2009-09-29T06:20:52Z</time>
      </trkpt>
      <trkpt lat="45.61817" lon="4.5936">
        <ele>859</ele>
        <time>2009-09-29T06:21:00Z</time>
      </trkpt>
      <trkpt lat="45.61827" lon="4.5936">
        <ele>859</ele>
        <time>2009-09-29T06:21:07Z</time>
      </trkpt>
      <trkpt lat="45.61837" lon="4.59358">
        <ele>860</ele>
        <time>2009-09-29T06:21:15Z</time>
      </trkpt>
      <trkpt lat="45.61847" lon="4.59354">
        <ele>861</ele>
        <time>2009-09-29T06:21:22Z</time>
      </trkpt>
      <trkpt lat="45.61857" lon="4.59354">
        <ele>861</ele>
        <time>2009-09-29T06:21:29Z</time>
      </trkpt>
      <trkpt lat="45.61866" lon="4.59351">
        <ele>862</ele>
        <time>2009-09-29T06:21:36Z</time>
      </trkpt>
      <trkpt lat="45.61876" lon="4.59349">
        <ele>862</ele>
        <time>2009-09-29T06:21:43Z</time>
      </trkpt>
      <trkpt lat="45.61887" lon="4.59348">
        <ele>863</ele>
        <time>2009-09-29T06:21:52Z</time>
      </trkpt>
      <trkpt lat="45.61897" lon="4.59348">
        <ele>863</ele>
        <time>2009-09-29T06:22:16Z</time>
      </trkpt>
      <trkpt lat="45.61906" lon="4.5935">
        <ele>863</ele>
        <time>2009-09-29T06:22:25Z</time>
      </trkpt>
      <trkpt lat="45.61916" lon="4.5935">
        <ele>863</ele>
        <time>2009-09-29T06:22:34Z</time>
      </trkpt>
      <trkpt lat="45.61926" lon="4.59351">
        <ele>866</ele>
        <time>2009-09-29T06:22:44Z</time>
      </trkpt>
      <trkpt lat="45.61936" lon="4.59352">
        <ele>867</ele>
        <time>2009-09-29T06:22:53Z</time>
      </trkpt>
      <trkpt lat="45.61945" lon="4.5935">
        <ele>867</ele>
        <time>2009-09-29T06:23:01Z</time>
      </trkpt>
      <trkpt lat="45.61955" lon="4.59347">
        <ele>868</ele>
        <time>2009-09-29T06:23:09Z</time>
      </trkpt>
      <trkpt lat="45.61964" lon="4.59343">
        <ele>868</ele>
        <time>2009-09-29T06:23:16Z</time>
      </trkpt>
      <trkpt lat="45.61974" lon="4.59337">
        <ele>868</ele>
        <time>2009-09-29T06:23:23Z</time>
      </trkpt>
      <trkpt lat="45.61982" lon="4.59334">
        <ele>868</ele>
        <time>2009-09-29T06:23:30Z</time>
      </trkpt>
      <trkpt lat="45.61992" lon="4.59331">
        <ele>867</ele>
        <time>2009-09-29T06:23:38Z</time>
      </trkpt>
      <trkpt lat="45.62003" lon="4.59334">
        <ele>868</ele>
        <time>2009-09-29T06:23:47Z</time>
      </trkpt>
      <trkpt lat="45.62012" lon="4.59337">
        <ele>868</ele>
        <time>2009-09-29T06:23:55Z</time>
      </trkpt>
      <trkpt lat="45.62021" lon="4.5934">
        <ele>867</ele>
        <time>2009-09-29T06:24:02Z</time>
      </trkpt>
      <trkpt lat="45.6203" lon="4.59345">
        <ele>867</ele>
        <time>2009-09-29T06:24:09Z</time>
      </trkpt>
      <trkpt lat="45.62039" lon="4.5935">
        <ele>867</ele>
        <time>2009-09-29T06:24:17Z</time>
      </trkpt>
      <trkpt lat="45.62049" lon="4.59353">
        <ele>866</ele>
        <time>2009-09-29T06:24:24Z</time>
      </trkpt>
      <trkpt lat="45.62057" lon="4.59359">
        <ele>866</ele>
        <time>2009-09-29T06:24:32Z</time>
      </trkpt>
      <trkpt lat="45.62066" lon="4.59368">
        <ele>866</ele>
        <time>2009-09-29T06:24:40Z</time>
      </trkpt>
      <trkpt lat="45.62075" lon="4.59376">
        <ele>866</ele>
        <time>2009-09-29T06:24:48Z</time>
      </trkpt>
      <trkpt lat="45.62084" lon="4.59382">
        <ele>860</ele>
        <time>2009-09-29T06:24:55Z</time>
      </trkpt>
      <trkpt lat="45.62093" lon="4.5939">
        <ele>861</ele>
        <time>2009-09-29T06:25:03Z</time>
      </trkpt>
      <trkpt lat="45.62099" lon="4.594">
        <ele>861</ele>
        <time>2009-09-29T06:25:11Z</time>
      </trkpt>
      <trkpt lat="45.62106" lon="4.59409">
        <ele>861</ele>
        <time>2009-09-29T06:25:23Z</time>
      </trkpt>
      <trkpt lat="45.62113" lon="4.59418">
        <ele>863</ele>
        <time>2009-09-29T06:25:30Z</time>
      </trkpt>
      <trkpt lat="45.6212" lon="4.59428">
        <ele>862</ele>
        <time>2009-09-29T06:25:38Z</time>
      </trkpt>
      <trkpt lat="45.62129" lon="4.59436">
        <ele>862</ele>
        <time>2009-09-29T06:25:45Z</time>
      </trkpt>
      <trkpt lat="45.62137" lon="4.59445">
        <ele>861</ele>
        <time>2009-09-29T06:25:53Z</time>
      </trkpt>
      <trkpt lat="45.62146" lon="4.59454">
        <ele>861</ele>
        <time>2009-09-29T06:26:01Z</time>
      </trkpt>
      <trkpt lat="45.62154" lon="4.59462">
        <ele>860</ele>
        <time>2009-09-29T06:26:09Z</time>
      </trkpt>
      <trkpt lat="45.62162" lon="4.59471">
        <ele>860</ele>
        <time>2009-09-29T06:26:17Z</time>
      </trkpt>
      <trkpt lat="45.6217" lon="4.59478">
        <ele>852</ele>
        <time>2009-09-29T06:26:24Z</time>
      </trkpt>
      <trkpt lat="45.62178" lon="4.59487">
        <ele>852</ele>
        <time>2009-09-29T06:26:31Z</time>
      </trkpt>
      <trkpt lat="45.62186" lon="4.59495">
        <ele>851</ele>
        <time>2009-09-29T06:26:38Z</time>
      </trkpt>
      <trkpt lat="45.62193" lon="4.59505">
        <ele>850</ele>
        <time>2009-09-29T06:26:46Z</time>
      </trkpt>
      <trkpt lat="45.62197" lon="4.59519">
        <ele>849</ele>
        <time>2009-09-29T06:26:54Z</time>
      </trkpt>
      <trkpt lat="45.62202" lon="4.59531">
        <ele>848</ele>
        <time>2009-09-29T06:27:02Z</time>
      </trkpt>
      <trkpt lat="45.62208" lon="4.59543">
        <ele>847</ele>
        <time>2009-09-29T06:27:10Z</time>
      </trkpt>
      <trkpt lat="45.62211" lon="4.59557">
        <ele>847</ele>
        <time>2009-09-29T06:27:18Z</time>
      </trkpt>
      <trkpt lat="45.62214" lon="4.59571">
        <ele>846</ele>
        <time>2009-09-29T06:27:26Z</time>
      </trkpt>
      <trkpt lat="45.62217" lon="4.59584">
        <ele>845</ele>
        <time>2009-09-29T06:27:34Z</time>
      </trkpt>
      <trkpt lat="45.62221" lon="4.59597">
        <ele>844</ele>
        <time>2009-09-29T06:27:42Z</time>
      </trkpt>
      <trkpt lat="45.62223" lon="4.59611">
        <ele>844</ele>
        <time>2009-09-29T06:27:50Z</time>
      </trkpt>
      <trkpt lat="45.62224" lon="4.59625">
        <ele>844</ele>
        <time>2009-09-29T06:27:58Z</time>
      </trkpt>
      <trkpt lat="45.62223" lon="4.59639">
        <ele>844</ele>
        <time>2009-09-29T06:28:05Z</time>
      </trkpt>
      <trkpt lat="45.62224" lon="4.59653">
        <ele>843</ele>
        <time>2009-09-29T06:28:12Z</time>
      </trkpt>
      <trkpt lat="45.62227" lon="4.59666">
        <ele>841</ele>
        <time>2009-09-29T06:28:22Z</time>
      </trkpt>
      <trkpt lat="45.62225" lon="4.5968">
        <ele>842</ele>
        <time>2009-09-29T06:28:28Z</time>
      </trkpt>
      <trkpt lat="45.62226" lon="4.59694">
        <ele>842</ele>
        <time>2009-09-29T06:28:36Z</time>
      </trkpt>
      <trkpt lat="45.62223" lon="4.5971">
        <ele>843</ele>
        <time>2009-09-29T06:28:42Z</time>
      </trkpt>
      <trkpt lat="45.62221" lon="4.59725">
        <ele>843</ele>
        <time>2009-09-29T06:28:48Z</time>
      </trkpt>
      <trkpt lat="45.62227" lon="4.59738">
        <ele>841</ele>
        <time>2009-09-29T06:28:56Z</time>
      </trkpt>
      <trkpt lat="45.62234" lon="4.59748">
        <ele>839</ele>
        <time>2009-09-29T06:29:03Z</time>
      </trkpt>
      <trkpt lat="45.62241" lon="4.59756">
        <ele>838</ele>
        <time>2009-09-29T06:29:09Z</time>
      </trkpt>
      <trkpt lat="45.6225" lon="4.59765">
        <ele>839</ele>
        <time>2009-09-29T06:29:16Z</time>
      </trkpt>
      <trkpt lat="45.62255" lon="4.59776">
        <ele>830</ele>
        <time>2009-09-29T06:29:23Z</time>
      </trkpt>
      <trkpt lat="45.62262" lon="4.59786">
        <ele>830</ele>
        <time>2009-09-29T06:29:30Z</time>
      </trkpt>
      <trkpt lat="45.62269" lon="4.59796">
        <ele>830</ele>
        <time>2009-09-29T06:29:37Z</time>
      </trkpt>
      <trkpt lat="45.62275" lon="4.59805">
        <ele>830</ele>
        <time>2009-09-29T06:29:43Z</time>
      </trkpt>
      <trkpt lat="45.62282" lon="4.59815">
        <ele>830</ele>
        <time>2009-09-29T06:29:50Z</time>
      </trkpt>
      <trkpt lat="45.62289" lon="4.59825">
        <ele>830</ele>
        <time>2009-09-29T06:29:58Z</time>
      </trkpt>
      <trkpt lat="45.62294" lon="4.59838">
        <ele>833</ele>
        <time>2009-09-29T06:30:06Z</time>
      </trkpt>
      <trkpt lat="45.62303" lon="4.59847">
        <ele>832</ele>
        <time>2009-09-29T06:30:14Z</time>
      </trkpt>
      <trkpt lat="45.62307" lon="4.59858">
        <ele>832</ele>
        <time>2009-09-29T06:30:21Z</time>
      </trkpt>
      <trkpt lat="45.62313" lon="4.59869">
        <ele>832</ele>
        <time>2009-09-29T06:30:28Z</time>
      </trkpt>
      <trkpt lat="45.62318" lon="4.59881">
        <ele>832</ele>
        <time>2009-09-29T06:30:35Z</time>
      </trkpt>
      <trkpt lat="45.62324" lon="4.59893">
        <ele>831</ele>
        <time>2009-09-29T06:30:43Z</time>
      </trkpt>
      <trkpt lat="45.6233" lon="4.59905">
        <ele>830</ele>
        <time>2009-09-29T06:30:50Z</time>
      </trkpt>
      <trkpt lat="45.62336" lon="4.59918">
        <ele>828</ele>
        <time>2009-09-29T06:30:58Z</time>
      </trkpt>
      <trkpt lat="45.62343" lon="4.59928">
        <ele>826</ele>
        <time>2009-09-29T06:31:06Z</time>
      </trkpt>
      <trkpt lat="45.6235" lon="4.59937">
        <ele>825</ele>
        <time>2009-09-29T06:31:13Z</time>
      </trkpt>
      <trkpt lat="45.62359" lon="4.59946">
        <ele>825</ele>
        <time>2009-09-29T06:31:20Z</time>
      </trkpt>
      <trkpt lat="45.62367" lon="4.59955">
        <ele>824</ele>
        <time>2009-09-29T06:31:27Z</time>
      </trkpt>
      <trkpt lat="45.62376" lon="4.59962">
        <ele>824</ele>
        <time>2009-09-29T06:31:34Z</time>
      </trkpt>
      <trkpt lat="45.62384" lon="4.5997">
        <ele>824</ele>
        <time>2009-09-29T06:31:41Z</time>
      </trkpt>
      <trkpt lat="45.62391" lon="4.59979">
        <ele>823</ele>
        <time>2009-09-29T06:31:48Z</time>
      </trkpt>
      <trkpt lat="45.62399" lon="4.59988">
        <ele>823</ele>
        <time>2009-09-29T06:31:55Z</time>
      </trkpt>
      <trkpt lat="45.62407" lon="4.59997">
        <ele>822</ele>
        <time>2009-09-29T06:32:02Z</time>
      </trkpt>
      <trkpt lat="45.62414" lon="4.60007">
        <ele>823</ele>
        <time>2009-09-29T06:32:09Z</time>
      </trkpt>
      <trkpt lat="45.6242" lon="4.60017">
        <ele>823</ele>
        <time>2009-09-29T06:32:16Z</time>
      </trkpt>
      <trkpt lat="45.62429" lon="4.60026">
        <ele>824</ele>
        <time>2009-09-29T06:32:23Z</time>
      </trkpt>
      <trkpt lat="45.62438" lon="4.60032">
        <ele>825</ele>
        <time>2009-09-29T06:32:30Z</time>
      </trkpt>
      <trkpt lat="45.62448" lon="4.60036">
        <ele>825</ele>
        <time>2009-09-29T06:32:37Z</time>
      </trkpt>
      <trkpt lat="45.62457" lon="4.60041">
        <ele>825</ele>
        <time>2009-09-29T06:32:44Z</time>
      </trkpt>
      <trkpt lat="45.62467" lon="4.60043">
        <ele>826</ele>
        <time>2009-09-29T06:32:51Z</time>
      </trkpt>
      <trkpt lat="45.62477" lon="4.60043">
        <ele>826</ele>
        <time>2009-09-29T06:32:57Z</time>
      </trkpt>
      <trkpt lat="45.62486" lon="4.60043">
        <ele>826</ele>
        <time>2009-09-29T06:33:04Z</time>
      </trkpt>
      <trkpt lat="45.62495" lon="4.60042">
        <ele>826</ele>
        <time>2009-09-29T06:33:12Z</time>
      </trkpt>
      <trkpt lat="45.62505" lon="4.60039">
        <ele>827</ele>
        <time>2009-09-29T06:33:19Z</time>
      </trkpt>
      <trkpt lat="45.62514" lon="4.60037">
        <ele>827</ele>
        <time>2009-09-29T06:33:28Z</time>
      </trkpt>
      <trkpt lat="45.62524" lon="4.60032">
        <ele>827</ele>
        <time>2009-09-29T06:33:34Z</time>
      </trkpt>
      <trkpt lat="45.62533" lon="4.60026">
        <ele>827</ele>
        <time>2009-09-29T06:33:40Z</time>
      </trkpt>
      <trkpt lat="45.62542" lon="4.6002">
        <ele>827</ele>
        <time>2009-09-29T06:33:46Z</time>
      </trkpt>
      <trkpt lat="45.62552" lon="4.60016">
        <ele>826</ele>
        <time>2009-09-29T06:33:53Z</time>
      </trkpt>
      <trkpt lat="45.62561" lon="4.60015">
        <ele>826</ele>
        <time>2009-09-29T06:34:01Z</time>
      </trkpt>
      <trkpt lat="45.6257" lon="4.60014">
        <ele>826</ele>
        <time>2009-09-29T06:34:10Z</time>
      </trkpt>
      <trkpt lat="45.62581" lon="4.60008">
        <ele>825</ele>
        <time>2009-09-29T06:34:17Z</time>
      </trkpt>
      <trkpt lat="45.62591" lon="4.60004">
        <ele>825</ele>
        <time>2009-09-29T06:34:23Z</time>
      </trkpt>
      <trkpt lat="45.62601" lon="4.59999">
        <ele>822</ele>
        <time>2009-09-29T06:34:31Z</time>
      </trkpt>
      <trkpt lat="45.62611" lon="4.59998">
        <ele>821</ele>
        <time>2009-09-29T06:34:38Z</time>
      </trkpt>
      <trkpt lat="45.6262" lon="4.59998">
        <ele>821</ele>
        <time>2009-09-29T06:34:46Z</time>
      </trkpt>
      <trkpt lat="45.6263" lon="4.59997">
        <ele>821</ele>
        <time>2009-09-29T06:34:52Z</time>
      </trkpt>
      <trkpt lat="45.6264" lon="4.59997">
        <ele>821</ele>
        <time>2009-09-29T06:34:59Z</time>
      </trkpt>
      <trkpt lat="45.6265" lon="4.59995">
        <ele>822</ele>
        <time>2009-09-29T06:35:05Z</time>
      </trkpt>
      <trkpt lat="45.62659" lon="4.59994">
        <ele>823</ele>
        <time>2009-09-29T06:35:11Z</time>
      </trkpt>
      <trkpt lat="45.62669" lon="4.59995">
        <ele>824</ele>
        <time>2009-09-29T06:35:19Z</time>
      </trkpt>
      <trkpt lat="45.6268" lon="4.59994">
        <ele>824</ele>
        <time>2009-09-29T06:35:25Z</time>
      </trkpt>
      <trkpt lat="45.6269" lon="4.59995">
        <ele>823</ele>
        <time>2009-09-29T06:35:33Z</time>
      </trkpt>
      <trkpt lat="45.627" lon="4.59995">
        <ele>824</ele>
        <time>2009-09-29T06:35:40Z</time>
      </trkpt>
      <trkpt lat="45.62709" lon="4.59994">
        <ele>824</ele>
        <time>2009-09-29T06:35:47Z</time>
      </trkpt>
      <trkpt lat="45.62719" lon="4.59992">
        <ele>824</ele>
        <time>2009-09-29T06:35:54Z</time>
      </trkpt>
      <trkpt lat="45.62729" lon="4.59991">
        <ele>825</ele>
        <time>2009-09-29T06:36:01Z</time>
      </trkpt>
      <trkpt lat="45.62739" lon="4.59992">
        <ele>827</ele>
        <time>2009-09-29T06:36:08Z</time>
      </trkpt>
      <trkpt lat="45.62748" lon="4.59991">
        <ele>828</ele>
        <time>2009-09-29T06:36:15Z</time>
      </trkpt>
      <trkpt lat="45.62758" lon="4.59993">
        <ele>829</ele>
        <time>2009-09-29T06:36:23Z</time>
      </trkpt>
      <trkpt lat="45.62768" lon="4.59995">
        <ele>828</ele>
        <time>2009-09-29T06:36:31Z</time>
      </trkpt>
      <trkpt lat="45.62779" lon="4.59997">
        <ele>828</ele>
        <time>2009-09-29T06:36:39Z</time>
      </trkpt>
      <trkpt lat="45.6279" lon="4.59997">
        <ele>829</ele>
        <time>2009-09-29T06:36:47Z</time>
      </trkpt>
      <trkpt lat="45.62799" lon="4.59995">
        <ele>829</ele>
        <time>2009-09-29T06:36:53Z</time>
      </trkpt>
      <trkpt lat="45.62809" lon="4.59996">
        <ele>830</ele>
        <time>2009-09-29T06:37:01Z</time>
      </trkpt>
      <trkpt lat="45.62819" lon="4.59995">
        <ele>831</ele>
        <time>2009-09-29T06:37:07Z</time>
      </trkpt>
      <trkpt lat="45.6283" lon="4.59994">
        <ele>832</ele>
        <time>2009-09-29T06:37:14Z</time>
      </trkpt>
      <trkpt lat="45.62839" lon="4.59993">
        <ele>834</ele>
        <time>2009-09-29T06:37:21Z</time>
      </trkpt>
      <trkpt lat="45.62848" lon="4.59995">
        <ele>834</ele>
        <time>2009-09-29T06:37:29Z</time>
      </trkpt>
      <trkpt lat="45.62858" lon="4.59997">
        <ele>834</ele>
        <time>2009-09-29T06:37:37Z</time>
      </trkpt>
      <trkpt lat="45.62868" lon="4.59999">
        <ele>834</ele>
        <time>2009-09-29T06:37:45Z</time>
      </trkpt>
      <trkpt lat="45.62878" lon="4.59996">
        <ele>835</ele>
        <time>2009-09-29T06:37:54Z</time>
      </trkpt>
      <trkpt lat="45.62887" lon="4.59994">
        <ele>835</ele>
        <time>2009-09-29T06:38:01Z</time>
      </trkpt>
      <trkpt lat="45.62896" lon="4.59998">
        <ele>836</ele>
        <time>2009-09-29T06:38:08Z</time>
      </trkpt>
      <trkpt lat="45.62905" lon="4.60004">
        <ele>839</ele>
        <time>2009-09-29T06:38:18Z</time>
      </trkpt>
      <trkpt lat="45.62915" lon="4.60005">
        <ele>839</ele>
        <time>2009-09-29T06:38:25Z</time>
      </trkpt>
      <trkpt lat="45.62925" lon="4.60007">
        <ele>840</ele>
        <time>2009-09-29T06:38:33Z</time>
      </trkpt>
      <trkpt lat="45.62934" lon="4.6001">
        <ele>841</ele>
        <time>2009-09-29T06:38:40Z</time>
      </trkpt>
      <trkpt lat="45.62942" lon="4.6002">
        <ele>842</ele>
        <time>2009-09-29T06:38:48Z</time>
      </trkpt>
      <trkpt lat="45.6295" lon="4.60031">
        <ele>843</ele>
        <time>2009-09-29T06:38:54Z</time>
      </trkpt>
      <trkpt lat="45.62954" lon="4.60043">
        <ele>843</ele>
        <time>2009-09-29T06:39:07Z</time>
      </trkpt>
      <trkpt lat="45.62963" lon="4.60038">
        <ele>843</ele>
        <time>2009-09-29T06:39:17Z</time>
      </trkpt>
      <trkpt lat="45.62973" lon="4.60043">
        <ele>844</ele>
        <time>2009-09-29T06:39:29Z</time>
      </trkpt>
      <trkpt lat="45.62977" lon="4.60031">
        <ele>844</ele>
        <time>2009-09-29T06:39:34Z</time>
      </trkpt>
      <trkpt lat="45.62983" lon="4.60019">
        <ele>845</ele>
        <time>2009-09-29T06:39:52Z</time>
      </trkpt>
      <trkpt lat="45.62991" lon="4.6001">
        <ele>845</ele>
        <time>2009-09-29T06:39:58Z</time>
      </trkpt>
      <trkpt lat="45.62998" lon="4.6">
        <ele>847</ele>
        <time>2009-09-29T06:40:05Z</time>
      </trkpt>
      <trkpt lat="45.63005" lon="4.5999">
        <ele>851</ele>
        <time>2009-09-29T06:40:12Z</time>
      </trkpt>
      <trkpt lat="45.63009" lon="4.59977">
        <ele>854</ele>
        <time>2009-09-29T06:40:20Z</time>
      </trkpt>
      <trkpt lat="45.63013" lon="4.59965">
        <ele>855</ele>
        <time>2009-09-29T06:40:27Z</time>
      </trkpt>
      <trkpt lat="45.63017" lon="4.59952">
        <ele>856</ele>
        <time>2009-09-29T06:40:35Z</time>
      </trkpt>
      <trkpt lat="45.6302" lon="4.59939">
        <ele>856</ele>
        <time>2009-09-29T06:40:41Z</time>
      </trkpt>
      <trkpt lat="45.63023" lon="4.59925">
        <ele>856</ele>
        <time>2009-09-29T06:40:50Z</time>
      </trkpt>
      <trkpt lat="45.63026" lon="4.59911">
        <ele>857</ele>
        <time>2009-09-29T06:40:58Z</time>
      </trkpt>
      <trkpt lat="45.63029" lon="4.59898">
        <ele>858</ele>
        <time>2009-09-29T06:41:08Z</time>
      </trkpt>
      <trkpt lat="45.63032" lon="4.59885">
        <ele>859</ele>
        <time>2009-09-29T06:41:17Z</time>
      </trkpt>
      <trkpt lat="45.63032" lon="4.59871">
        <ele>859</ele>
        <time>2009-09-29T06:41:29Z</time>
      </trkpt>
      <trkpt lat="45.63037" lon="4.59859">
        <ele>860</ele>
        <time>2009-09-29T06:41:39Z</time>
      </trkpt>
      <trkpt lat="45.63042" lon="4.59848">
        <ele>860</ele>
        <time>2009-09-29T06:41:49Z</time>
      </trkpt>
      <trkpt lat="45.63048" lon="4.59837">
        <ele>861</ele>
        <time>2009-09-29T06:41:57Z</time>
      </trkpt>
      <trkpt lat="45.63055" lon="4.59827">
        <ele>863</ele>
        <time>2009-09-29T06:42:10Z</time>
      </trkpt>
      <trkpt lat="45.63059" lon="4.59814">
        <ele>863</ele>
        <time>2009-09-29T06:42:54Z</time>
      </trkpt>
      <trkpt lat="45.63065" lon="4.59803">
        <ele>864</ele>
        <time>2009-09-29T06:43:02Z</time>
      </trkpt>
      <trkpt lat="45.63072" lon="4.59793">
        <ele>864</ele>
        <time>2009-09-29T06:43:10Z</time>
      </trkpt>
      <trkpt lat="45.63078" lon="4.59783">
        <ele>864</ele>
        <time>2009-09-29T06:43:17Z</time>
      </trkpt>
      <trkpt lat="45.63085" lon="4.59772">
        <ele>871</ele>
        <time>2009-09-29T06:43:24Z</time>
      </trkpt>
      <trkpt lat="45.63091" lon="4.59761">
        <ele>871</ele>
        <time>2009-09-29T06:43:31Z</time>
      </trkpt>
      <trkpt lat="45.63095" lon="4.59749">
        <ele>870</ele>
        <time>2009-09-29T06:43:38Z</time>
      </trkpt>
      <trkpt lat="45.631" lon="4.59737">
        <ele>870</ele>
        <time>2009-09-29T06:43:45Z</time>
      </trkpt>
      <trkpt lat="45.63104" lon="4.59725">
        <ele>870</ele>
        <time>2009-09-29T06:43:52Z</time>
      </trkpt>
      <trkpt lat="45.63111" lon="4.59715">
        <ele>870</ele>
        <time>2009-09-29T06:44:00Z</time>
      </trkpt>
      <trkpt lat="45.63116" lon="4.59703">
        <ele>870</ele>
        <time>2009-09-29T06:44:09Z</time>
      </trkpt>
      <trkpt lat="45.63124" lon="4.59695">
        <ele>870</ele>
        <time>2009-09-29T06:44:17Z</time>
      </trkpt>
      <trkpt lat="45.63134" lon="4.59694">
        <ele>870</ele>
        <time>2009-09-29T06:44:27Z</time>
      </trkpt>
      <trkpt lat="45.63143" lon="4.59694">
        <ele>871</ele>
        <time>2009-09-29T06:44:35Z</time>
      </trkpt>
      <trkpt lat="45.63153" lon="4.59695">
        <ele>871</ele>
        <time>2009-09-29T06:44:43Z</time>
      </trkpt>
      <trkpt lat="45.63164" lon="4.59697">
        <ele>871</ele>
        <time>2009-09-29T06:44:51Z</time>
      </trkpt>
      <trkpt lat="45.63174" lon="4.59699">
        <ele>873</ele>
        <time>2009-09-29T06:44:59Z</time>
      </trkpt>
      <trkpt lat="45.63183" lon="4.59701">
        <ele>873</ele>
        <time>2009-09-29T06:45:06Z</time>
      </trkpt>
      <trkpt lat="45.63194" lon="4.597">
        <ele>873</ele>
        <time>2009-09-29T06:45:16Z</time>
      </trkpt>
      <trkpt lat="45.63205" lon="4.59699">
        <ele>873</ele>
        <time>2009-09-29T06:45:26Z</time>
      </trkpt>
      <trkpt lat="45.63215" lon="4.59698">
        <ele>873</ele>
        <time>2009-09-29T06:45:32Z</time>
      </trkpt>
      <trkpt lat="45.63224" lon="4.59695">
        <ele>873</ele>
        <time>2009-09-29T06:45:38Z</time>
      </trkpt>
      <trkpt lat="45.63234" lon="4.59692">
        <ele>873</ele>
        <time>2009-09-29T06:45:45Z</time>
      </trkpt>
      <trkpt lat="45.63244" lon="4.59691">
        <ele>873</ele>
        <time>2009-09-29T06:45:53Z</time>
      </trkpt>
      <trkpt lat="45.63253" lon="4.5969">
        <ele>873</ele>
        <time>2009-09-29T06:46:00Z</time>
      </trkpt>
      <trkpt lat="45.63263" lon="4.59687">
        <ele>873</ele>
        <time>2009-09-29T06:46:07Z</time>
      </trkpt>
      <trkpt lat="45.63273" lon="4.59684">
        <ele>873</ele>
        <time>2009-09-29T06:46:14Z</time>
      </trkpt>
      <trkpt lat="45.63283" lon="4.59681">
        <ele>873</ele>
        <time>2009-09-29T06:46:22Z</time>
      </trkpt>
      <trkpt lat="45.63293" lon="4.59679">
        <ele>873</ele>
        <time>2009-09-29T06:46:28Z</time>
      </trkpt>
      <trkpt lat="45.63303" lon="4.59676">
        <ele>873</ele>
        <time>2009-09-29T06:46:36Z</time>
      </trkpt>
      <trkpt lat="45.63312" lon="4.59672">
        <ele>873</ele>
        <time>2009-09-29T06:46:42Z</time>
      </trkpt>
      <trkpt lat="45.63322" lon="4.59672">
        <ele>872</ele>
        <time>2009-09-29T06:46:50Z</time>
      </trkpt>
      <trkpt lat="45.63332" lon="4.59672">
        <ele>871</ele>
        <time>2009-09-29T06:46:58Z</time>
      </trkpt>
      <trkpt lat="45.63343" lon="4.59672">
        <ele>871</ele>
        <time>2009-09-29T06:47:06Z</time>
      </trkpt>
      <trkpt lat="45.63353" lon="4.59672">
        <ele>872</ele>
        <time>2009-09-29T06:47:14Z</time>
      </trkpt>
      <trkpt lat="45.63363" lon="4.59672">
        <ele>873</ele>
        <time>2009-09-29T06:47:22Z</time>
      </trkpt>
      <trkpt lat="45.63373" lon="4.59672">
        <ele>873</ele>
        <time>2009-09-29T06:47:30Z</time>
      </trkpt>
      <trkpt lat="45.63383" lon="4.5967">
        <ele>873</ele>
        <time>2009-09-29T06:47:38Z</time>
      </trkpt>
      <trkpt lat="45.63393" lon="4.5967">
        <ele>872</ele>
        <time>2009-09-29T06:47:47Z</time>
      </trkpt>
      <trkpt lat="45.63403" lon="4.5967">
        <ele>871</ele>
        <time>2009-09-29T06:47:55Z</time>
      </trkpt>
      <trkpt lat="45.63413" lon="4.59667">
        <ele>870</ele>
        <time>2009-09-29T06:48:02Z</time>
      </trkpt>
      <trkpt lat="45.63422" lon="4.59663">
        <ele>868</ele>
        <time>2009-09-29T06:48:09Z</time>
      </trkpt>
      <trkpt lat="45.63431" lon="4.59659">
        <ele>866</ele>
        <time>2009-09-29T06:48:57Z</time>
      </trkpt>
      <trkpt lat="45.63441" lon="4.59661">
        <ele>865</ele>
        <time>2009-09-29T06:49:05Z</time>
      </trkpt>
      <trkpt lat="45.63451" lon="4.59662">
        <ele>864</ele>
        <time>2009-09-29T06:49:12Z</time>
      </trkpt>
      <trkpt lat="45.63462" lon="4.59661">
        <ele>864</ele>
        <time>2009-09-29T06:49:18Z</time>
      </trkpt>
      <trkpt lat="45.63471" lon="4.59663">
        <ele>864</ele>
        <time>2009-09-29T06:49:24Z</time>
      </trkpt>
      <trkpt lat="45.63481" lon="4.59664">
        <ele>864</ele>
        <time>2009-09-29T06:49:30Z</time>
      </trkpt>
      <trkpt lat="45.63491" lon="4.59667">
        <ele>866</ele>
        <time>2009-09-29T06:49:37Z</time>
      </trkpt>
      <trkpt lat="45.63501" lon="4.59671">
        <ele>864</ele>
        <time>2009-09-29T06:49:45Z</time>
      </trkpt>
      <trkpt lat="45.63511" lon="4.59675">
        <ele>864</ele>
        <time>2009-09-29T06:49:53Z</time>
      </trkpt>
      <trkpt lat="45.6352" lon="4.59679">
        <ele>864</ele>
        <time>2009-09-29T06:50:00Z</time>
      </trkpt>
      <trkpt lat="45.6353" lon="4.5968">
        <ele>864</ele>
        <time>2009-09-29T06:50:07Z</time>
      </trkpt>
      <trkpt lat="45.63539" lon="4.5968">
        <ele>864</ele>
        <time>2009-09-29T06:50:14Z</time>
      </trkpt>
      <trkpt lat="45.63549" lon="4.59681">
        <ele>864</ele>
        <time>2009-09-29T06:50:25Z</time>
      </trkpt>
      <trkpt lat="45.63559" lon="4.59677">
        <ele>863</ele>
        <time>2009-09-29T06:50:35Z</time>
      </trkpt>
      <trkpt lat="45.63566" lon="4.59667">
        <ele>863</ele>
        <time>2009-09-29T06:50:46Z</time>
      </trkpt>
      <trkpt lat="45.6357" lon="4.59655">
        <ele>861</ele>
        <time>2009-09-29T06:50:56Z</time>
      </trkpt>
      <trkpt lat="45.63571" lon="4.5964">
        <ele>862</ele>
        <time>2009-09-29T06:51:03Z</time>
      </trkpt>
      <trkpt lat="45.63568" lon="4.59628">
        <ele>862</ele>
        <time>2009-09-29T06:51:10Z</time>
      </trkpt>
      <trkpt lat="45.63562" lon="4.59616">
        <ele>862</ele>
        <time>2009-09-29T06:51:18Z</time>
      </trkpt>
      <trkpt lat="45.63556" lon="4.59606">
        <ele>862</ele>
        <time>2009-09-29T06:51:25Z</time>
      </trkpt>
      <trkpt lat="45.63549" lon="4.59596">
        <ele>861</ele>
        <time>2009-09-29T06:51:33Z</time>
      </trkpt>
      <trkpt lat="45.63541" lon="4.59586">
        <ele>861</ele>
        <time>2009-09-29T06:51:41Z</time>
      </trkpt>
      <trkpt lat="45.63536" lon="4.59574">
        <ele>861</ele>
        <time>2009-09-29T06:51:49Z</time>
      </trkpt>
      <trkpt lat="45.63532" lon="4.59562">
        <ele>860</ele>
        <time>2009-09-29T06:51:56Z</time>
      </trkpt>
      <trkpt lat="45.63529" lon="4.59549">
        <ele>860</ele>
        <time>2009-09-29T06:52:03Z</time>
      </trkpt>
      <trkpt lat="45.63527" lon="4.59536">
        <ele>860</ele>
        <time>2009-09-29T06:52:10Z</time>
      </trkpt>
      <trkpt lat="45.63524" lon="4.59522">
        <ele>860</ele>
        <time>2009-09-29T06:52:17Z</time>
      </trkpt>
      <trkpt lat="45.63522" lon="4.59508">
        <ele>859</ele>
        <time>2009-09-29T06:52:24Z</time>
      </trkpt>
      <trkpt lat="45.63521" lon="4.59495">
        <ele>860</ele>
        <time>2009-09-29T06:52:31Z</time>
      </trkpt>
      <trkpt lat="45.63518" lon="4.59481">
        <ele>860</ele>
        <time>2009-09-29T06:52:38Z</time>
      </trkpt>
      <trkpt lat="45.63515" lon="4.59468">
        <ele>861</ele>
        <time>2009-09-29T06:52:46Z</time>
      </trkpt>
      <trkpt lat="45.63513" lon="4.59454">
        <ele>861</ele>
        <time>2009-09-29T06:52:53Z</time>
      </trkpt>
      <trkpt lat="45.63513" lon="4.5944">
        <ele>860</ele>
        <time>2009-09-29T06:53:00Z</time>
      </trkpt>
      <trkpt lat="45.63513" lon="4.59426">
        <ele>859</ele>
        <time>2009-09-29T06:53:07Z</time>
      </trkpt>
      <trkpt lat="45.63513" lon="4.59413">
        <ele>860</ele>
        <time>2009-09-29T06:53:14Z</time>
      </trkpt>
      <trkpt lat="45.63513" lon="4.59399">
        <ele>862</ele>
        <time>2009-09-29T06:53:21Z</time>
      </trkpt>
      <trkpt lat="45.63515" lon="4.59386">
        <ele>863</ele>
        <time>2009-09-29T06:53:28Z</time>
      </trkpt>
      <trkpt lat="45.63515" lon="4.59372">
        <ele>864</ele>
        <time>2009-09-29T06:53:35Z</time>
      </trkpt>
      <trkpt lat="45.63516" lon="4.59359">
        <ele>864</ele>
        <time>2009-09-29T06:53:43Z</time>
      </trkpt>
      <trkpt lat="45.63516" lon="4.59345">
        <ele>863</ele>
        <time>2009-09-29T06:53:51Z</time>
      </trkpt>
      <trkpt lat="45.63518" lon="4.5933">
        <ele>864</ele>
        <time>2009-09-29T06:53:59Z</time>
      </trkpt>
      <trkpt lat="45.63519" lon="4.59316">
        <ele>866</ele>
        <time>2009-09-29T06:54:06Z</time>
      </trkpt>
      <trkpt lat="45.6352" lon="4.59301">
        <ele>867</ele>
        <time>2009-09-29T06:54:14Z</time>
      </trkpt>
      <trkpt lat="45.63521" lon="4.59286">
        <ele>868</ele>
        <time>2009-09-29T06:54:22Z</time>
      </trkpt>
      <trkpt lat="45.63522" lon="4.59272">
        <ele>868</ele>
        <time>2009-09-29T06:54:31Z</time>
      </trkpt>
      <trkpt lat="45.63523" lon="4.59258">
        <ele>867</ele>
        <time>2009-09-29T06:54:37Z</time>
      </trkpt>
      <trkpt lat="45.63522" lon="4.59244">
        <ele>866</ele>
        <time>2009-09-29T06:54:44Z</time>
      </trkpt>
      <trkpt lat="45.63521" lon="4.59229">
        <ele>867</ele>
        <time>2009-09-29T06:54:51Z</time>
      </trkpt>
      <trkpt lat="45.6352" lon="4.59215">
        <ele>867</ele>
        <time>2009-09-29T06:54:57Z</time>
      </trkpt>
      <trkpt lat="45.63518" lon="4.59201">
        <ele>867</ele>
        <time>2009-09-29T06:55:06Z</time>
      </trkpt>
      <trkpt lat="45.63518" lon="4.59187">
        <ele>866</ele>
        <time>2009-09-29T06:55:12Z</time>
      </trkpt>
      <trkpt lat="45.6352" lon="4.59174">
        <ele>865</ele>
        <time>2009-09-29T06:55:18Z</time>
      </trkpt>
      <trkpt lat="45.6352" lon="4.59159">
        <ele>863</ele>
        <time>2009-09-29T06:55:26Z</time>
      </trkpt>
      <trkpt lat="45.63523" lon="4.59145">
        <ele>863</ele>
        <time>2009-09-29T06:55:33Z</time>
      </trkpt>
      <trkpt lat="45.63527" lon="4.59133">
        <ele>864</ele>
        <time>2009-09-29T06:55:41Z</time>
      </trkpt>
      <trkpt lat="45.63533" lon="4.59121">
        <ele>864</ele>
        <time>2009-09-29T06:55:49Z</time>
      </trkpt>
      <trkpt lat="45.6354" lon="4.59111">
        <ele>864</ele>
        <time>2009-09-29T06:55:57Z</time>
      </trkpt>
      <trkpt lat="45.63542" lon="4.59125">
        <ele>865</ele>
        <time>2009-09-29T06:57:20Z</time>
      </trkpt>
      <trkpt lat="45.63538" lon="4.59137">
        <ele>865</ele>
        <time>2009-09-29T06:57:30Z</time>
      </trkpt>
      <trkpt lat="45.63533" lon="4.5915">
        <ele>865</ele>
        <time>2009-09-29T06:57:39Z</time>
      </trkpt>
      <trkpt lat="45.6353" lon="4.59162">
        <ele>864</ele>
        <time>2009-09-29T06:57:48Z</time>
      </trkpt>
      <trkpt lat="45.6353" lon="4.59177">
        <ele>867</ele>
        <time>2009-09-29T06:57:57Z</time>
      </trkpt>
      <trkpt lat="45.63534" lon="4.5919">
        <ele>868</ele>
        <time>2009-09-29T06:58:06Z</time>
      </trkpt>
      <trkpt lat="45.6354" lon="4.59201">
        <ele>869</ele>
        <time>2009-09-29T06:58:15Z</time>
      </trkpt>
      <trkpt lat="45.63547" lon="4.59212">
        <ele>870</ele>
        <time>2009-09-29T06:58:24Z</time>
      </trkpt>
      <trkpt lat="45.63552" lon="4.59222">
        <ele>871</ele>
        <time>2009-09-29T06:58:33Z</time>
      </trkpt>
      <trkpt lat="45.63559" lon="4.59231">
        <ele>873</ele>
        <time>2009-09-29T06:58:43Z</time>
      </trkpt>
      <trkpt lat="45.63566" lon="4.59241">
        <ele>875</ele>
        <time>2009-09-29T06:58:53Z</time>
      </trkpt>
      <trkpt lat="45.63574" lon="4.59249">
        <ele>879</ele>
        <time>2009-09-29T06:59:02Z</time>
      </trkpt>
      <trkpt lat="45.63581" lon="4.59257">
        <ele>880</ele>
        <time>2009-09-29T06:59:12Z</time>
      </trkpt>
      <trkpt lat="45.6359" lon="4.59251">
        <ele>885</ele>
        <time>2009-09-29T06:59:25Z</time>
      </trkpt>
      <trkpt lat="45.63598" lon="4.59245">
        <ele>886</ele>
        <time>2009-09-29T06:59:32Z</time>
      </trkpt>
      <trkpt lat="45.63605" lon="4.59235">
        <ele>888</ele>
        <time>2009-09-29T06:59:37Z</time>
      </trkpt>
      <trkpt lat="45.63612" lon="4.59225">
        <ele>888</ele>
        <time>2009-09-29T06:59:44Z</time>
      </trkpt>
      <trkpt lat="45.63619" lon="4.59217">
        <ele>889</ele>
        <time>2009-09-29T06:59:55Z</time>
      </trkpt>
      <trkpt lat="45.63624" lon="4.59205">
        <ele>889</ele>
        <time>2009-09-29T07:00:04Z</time>
      </trkpt>
      <trkpt lat="45.63633" lon="4.59199">
        <ele>890</ele>
        <time>2009-09-29T07:00:08Z</time>
      </trkpt>
      <trkpt lat="45.63642" lon="4.59192">
        <ele>891</ele>
        <time>2009-09-29T07:00:20Z</time>
      </trkpt>
      <trkpt lat="45.6365" lon="4.59186">
        <ele>892</ele>
        <time>2009-09-29T07:00:32Z</time>
      </trkpt>
      <trkpt lat="45.6366" lon="4.59186">
        <ele>893</ele>
        <time>2009-09-29T07:00:42Z</time>
      </trkpt>
      <trkpt lat="45.63664" lon="4.592">
        <ele>893</ele>
        <time>2009-09-29T07:00:59Z</time>
      </trkpt>
      <trkpt lat="45.6367" lon="4.59211">
        <ele>907</ele>
        <time>2009-09-29T07:01:07Z</time>
      </trkpt>
      <trkpt lat="45.63677" lon="4.59221">
        <ele>908</ele>
        <time>2009-09-29T07:01:19Z</time>
      </trkpt>
      <trkpt lat="45.63682" lon="4.59232">
        <ele>908</ele>
        <time>2009-09-29T07:01:31Z</time>
      </trkpt>
      <trkpt lat="45.63679" lon="4.59245">
        <ele>906</ele>
        <time>2009-09-29T07:01:42Z</time>
      </trkpt>
      <trkpt lat="45.6368" lon="4.59258">
        <ele>908</ele>
        <time>2009-09-29T07:01:53Z</time>
      </trkpt>
      <trkpt lat="45.63682" lon="4.59272">
        <ele>910</ele>
        <time>2009-09-29T07:02:05Z</time>
      </trkpt>
      <trkpt lat="45.63688" lon="4.59283">
        <ele>912</ele>
        <time>2009-09-29T07:02:14Z</time>
      </trkpt>
      <trkpt lat="45.63694" lon="4.59294">
        <ele>913</ele>
        <time>2009-09-29T07:02:28Z</time>
      </trkpt>
      <trkpt lat="45.63701" lon="4.59303">
        <ele>914</ele>
        <time>2009-09-29T07:02:35Z</time>
      </trkpt>
      <trkpt lat="45.63709" lon="4.59312">
        <ele>916</ele>
        <time>2009-09-29T07:02:49Z</time>
      </trkpt>
      <trkpt lat="45.63716" lon="4.59322">
        <ele>917</ele>
        <time>2009-09-29T07:03:00Z</time>
      </trkpt>
      <trkpt lat="45.63717" lon="4.59336">
        <ele>916</ele>
        <time>2009-09-29T07:03:13Z</time>
      </trkpt>
      <trkpt lat="45.63721" lon="4.59349">
        <ele>916</ele>
        <time>2009-09-29T07:03:23Z</time>
      </trkpt>
      <trkpt lat="45.63728" lon="4.59358">
        <ele>917</ele>
        <time>2009-09-29T07:03:31Z</time>
      </trkpt>
      <trkpt lat="45.63736" lon="4.59366">
        <ele>917</ele>
        <time>2009-09-29T07:03:41Z</time>
      </trkpt>
      <trkpt lat="45.63744" lon="4.59372">
        <ele>917</ele>
        <time>2009-09-29T07:03:50Z</time>
      </trkpt>
      <trkpt lat="45.63751" lon="4.59381">
        <ele>926</ele>
        <time>2009-09-29T07:03:59Z</time>
      </trkpt>
      <trkpt lat="45.63754" lon="4.59394">
        <ele>925</ele>
        <time>2009-09-29T07:04:22Z</time>
      </trkpt>
      <trkpt lat="45.63755" lon="4.59407">
        <ele>922</ele>
        <time>2009-09-29T07:05:33Z</time>
      </trkpt>
      <trkpt lat="45.63764" lon="4.59412">
        <ele>923</ele>
        <time>2009-09-29T07:09:56Z</time>
      </trkpt>
      <trkpt lat="45.6377" lon="4.59425">
        <ele>917</ele>
        <time>2009-09-29T07:10:11Z</time>
      </trkpt>
      <trkpt lat="45.63775" lon="4.59435">
        <ele>917</ele>
        <time>2009-09-29T07:10:23Z</time>
      </trkpt>
      <trkpt lat="45.63782" lon="4.59445">
        <ele>916</ele>
        <time>2009-09-29T07:10:34Z</time>
      </trkpt>
      <trkpt lat="45.63789" lon="4.59456">
        <ele>915</ele>
        <time>2009-09-29T07:10:46Z</time>
      </trkpt>
      <trkpt lat="45.63797" lon="4.59462">
        <ele>915</ele>
        <time>2009-09-29T07:11:01Z</time>
      </trkpt>
      <trkpt lat="45.63789" lon="4.59471">
        <ele>914</ele>
        <time>2009-09-29T07:15:56Z</time>
      </trkpt>
      <trkpt lat="45.63796" lon="4.59462">
        <ele>915</ele>
        <time>2009-09-29T07:19:01Z</time>
      </trkpt>
      <trkpt lat="45.63794" lon="4.59449">
        <ele>916</ele>
        <time>2009-09-29T07:24:31Z</time>
      </trkpt>
      <trkpt lat="45.63788" lon="4.59437">
        <ele>917</ele>
        <time>2009-09-29T07:24:43Z</time>
      </trkpt>
      <trkpt lat="45.63781" lon="4.59428">
        <ele>917</ele>
        <time>2009-09-29T07:24:54Z</time>
      </trkpt>
      <trkpt lat="45.63774" lon="4.59419">
        <ele>918</ele>
        <time>2009-09-29T07:25:05Z</time>
      </trkpt>
      <trkpt lat="45.63767" lon="4.59409">
        <ele>924</ele>
        <time>2009-09-29T07:25:17Z</time>
      </trkpt>
      <trkpt lat="45.63766" lon="4.59396">
        <ele>925</ele>
        <time>2009-09-29T07:25:29Z</time>
      </trkpt>
      <trkpt lat="45.63761" lon="4.59384">
        <ele>926</ele>
        <time>2009-09-29T07:26:10Z</time>
      </trkpt>
      <trkpt lat="45.63753" lon="4.59375">
        <ele>927</ele>
        <time>2009-09-29T07:26:17Z</time>
      </trkpt>
      <trkpt lat="45.63748" lon="4.59363">
        <ele>918</ele>
        <time>2009-09-29T07:26:28Z</time>
      </trkpt>
      <trkpt lat="45.6374" lon="4.59355">
        <ele>919</ele>
        <time>2009-09-29T07:26:36Z</time>
      </trkpt>
      <trkpt lat="45.63732" lon="4.59346">
        <ele>919</ele>
        <time>2009-09-29T07:26:46Z</time>
      </trkpt>
      <trkpt lat="45.63724" lon="4.59337">
        <ele>918</ele>
        <time>2009-09-29T07:26:57Z</time>
      </trkpt>
      <trkpt lat="45.63723" lon="4.59323">
        <ele>919</ele>
        <time>2009-09-29T07:27:10Z</time>
      </trkpt>
      <trkpt lat="45.63719" lon="4.5931">
        <ele>917</ele>
        <time>2009-09-29T07:27:19Z</time>
      </trkpt>
      <trkpt lat="45.63713" lon="4.59301">
        <ele>916</ele>
        <time>2009-09-29T07:27:27Z</time>
      </trkpt>
      <trkpt lat="45.63709" lon="4.59289">
        <ele>915</ele>
        <time>2009-09-29T07:27:37Z</time>
      </trkpt>
      <trkpt lat="45.63701" lon="4.59281">
        <ele>914</ele>
        <time>2009-09-29T07:27:47Z</time>
      </trkpt>
      <trkpt lat="45.63699" lon="4.59268">
        <ele>913</ele>
        <time>2009-09-29T07:28:00Z</time>
      </trkpt>
      <trkpt lat="45.63696" lon="4.59256">
        <ele>912</ele>
        <time>2009-09-29T07:28:14Z</time>
      </trkpt>
      <trkpt lat="45.63692" lon="4.59242">
        <ele>909</ele>
        <time>2009-09-29T07:28:28Z</time>
      </trkpt>
      <trkpt lat="45.63691" lon="4.59229">
        <ele>909</ele>
        <time>2009-09-29T07:28:38Z</time>
      </trkpt>
      <trkpt lat="45.63686" lon="4.59216">
        <ele>909</ele>
        <time>2009-09-29T07:28:47Z</time>
      </trkpt>
      <trkpt lat="45.6368" lon="4.59204">
        <ele>908</ele>
        <time>2009-09-29T07:28:58Z</time>
      </trkpt>
      <trkpt lat="45.63672" lon="4.59197">
        <ele>906</ele>
        <time>2009-09-29T07:29:06Z</time>
      </trkpt>
      <trkpt lat="45.63671" lon="4.59182">
        <ele>904</ele>
        <time>2009-09-29T07:29:22Z</time>
      </trkpt>
      <trkpt lat="45.63663" lon="4.59174">
        <ele>895</ele>
        <time>2009-09-29T07:29:31Z</time>
      </trkpt>
      <trkpt lat="45.63653" lon="4.59171">
        <ele>893</ele>
        <time>2009-09-29T07:29:37Z</time>
      </trkpt>
      <trkpt lat="45.63642" lon="4.59175">
        <ele>891</ele>
        <time>2009-09-29T07:29:43Z</time>
      </trkpt>
      <trkpt lat="45.63633" lon="4.5918">
        <ele>890</ele>
        <time>2009-09-29T07:29:50Z</time>
      </trkpt>
      <trkpt lat="45.63625" lon="4.59192">
        <ele>889</ele>
        <time>2009-09-29T07:29:57Z</time>
      </trkpt>
      <trkpt lat="45.63618" lon="4.592">
        <ele>888</ele>
        <time>2009-09-29T07:30:02Z</time>
      </trkpt>
      <trkpt lat="45.63611" lon="4.5921">
        <ele>888</ele>
        <time>2009-09-29T07:30:10Z</time>
      </trkpt>
      <trkpt lat="45.63602" lon="4.59215">
        <ele>887</ele>
        <time>2009-09-29T07:30:18Z</time>
      </trkpt>
      <trkpt lat="45.63595" lon="4.59225">
        <ele>887</ele>
        <time>2009-09-29T07:30:27Z</time>
      </trkpt>
      <trkpt lat="45.63588" lon="4.59234">
        <ele>886</ele>
        <time>2009-09-29T07:30:35Z</time>
      </trkpt>
      <trkpt lat="45.63579" lon="4.5924">
        <ele>878</ele>
        <time>2009-09-29T07:30:43Z</time>
      </trkpt>
      <trkpt lat="45.63573" lon="4.5925">
        <ele>879</ele>
        <time>2009-09-29T07:30:52Z</time>
      </trkpt>
      <trkpt lat="45.63567" lon="4.59262">
        <ele>876</ele>
        <time>2009-09-29T07:30:59Z</time>
      </trkpt>
      <trkpt lat="45.63562" lon="4.59274">
        <ele>874</ele>
        <time>2009-09-29T07:31:06Z</time>
      </trkpt>
      <trkpt lat="45.63555" lon="4.59283">
        <ele>873</ele>
        <time>2009-09-29T07:31:17Z</time>
      </trkpt>
      <trkpt lat="45.6355" lon="4.59294">
        <ele>872</ele>
        <time>2009-09-29T07:31:26Z</time>
      </trkpt>
      <trkpt lat="45.63547" lon="4.59308">
        <ele>871</ele>
        <time>2009-09-29T07:31:37Z</time>
      </trkpt>
      <trkpt lat="45.63543" lon="4.59321">
        <ele>870</ele>
        <time>2009-09-29T07:31:46Z</time>
      </trkpt>
      <trkpt lat="45.6354" lon="4.59334">
        <ele>868</ele>
        <time>2009-09-29T07:31:56Z</time>
      </trkpt>
      <trkpt lat="45.63536" lon="4.59346">
        <ele>867</ele>
        <time>2009-09-29T07:32:05Z</time>
      </trkpt>
      <trkpt lat="45.63533" lon="4.59359">
        <ele>866</ele>
        <time>2009-09-29T07:32:16Z</time>
      </trkpt>
      <trkpt lat="45.63529" lon="4.59371">
        <ele>866</ele>
        <time>2009-09-29T07:32:27Z</time>
      </trkpt>
      <trkpt lat="45.63523" lon="4.59382">
        <ele>865</ele>
        <time>2009-09-29T07:32:38Z</time>
      </trkpt>
      <trkpt lat="45.63517" lon="4.59392">
        <ele>863</ele>
        <time>2009-09-29T07:32:50Z</time>
      </trkpt>
      <trkpt lat="45.63512" lon="4.59404">
        <ele>861</ele>
        <time>2009-09-29T07:33:00Z</time>
      </trkpt>
      <trkpt lat="45.63509" lon="4.59416">
        <ele>858</ele>
        <time>2009-09-29T07:33:07Z</time>
      </trkpt>
      <trkpt lat="45.63505" lon="4.59429">
        <ele>858</ele>
        <time>2009-09-29T07:33:14Z</time>
      </trkpt>
      <trkpt lat="45.63507" lon="4.59444">
        <ele>860</ele>
        <time>2009-09-29T07:33:21Z</time>
      </trkpt>
      <trkpt lat="45.63506" lon="4.59459">
        <ele>860</ele>
        <time>2009-09-29T07:33:29Z</time>
      </trkpt>
      <trkpt lat="45.6351" lon="4.59472">
        <ele>860</ele>
        <time>2009-09-29T07:33:37Z</time>
      </trkpt>
      <trkpt lat="45.63514" lon="4.59485">
        <ele>859</ele>
        <time>2009-09-29T07:33:46Z</time>
      </trkpt>
      <trkpt lat="45.63515" lon="4.59498">
        <ele>859</ele>
        <time>2009-09-29T07:33:54Z</time>
      </trkpt>
      <trkpt lat="45.63516" lon="4.59513">
        <ele>859</ele>
        <time>2009-09-29T07:34:02Z</time>
      </trkpt>
      <trkpt lat="45.63518" lon="4.59526">
        <ele>859</ele>
        <time>2009-09-29T07:34:09Z</time>
      </trkpt>
      <trkpt lat="45.6352" lon="4.59539">
        <ele>860</ele>
        <time>2009-09-29T07:34:15Z</time>
      </trkpt>
      <trkpt lat="45.63522" lon="4.59552">
        <ele>860</ele>
        <time>2009-09-29T07:34:22Z</time>
      </trkpt>
      <trkpt lat="45.63525" lon="4.59566">
        <ele>860</ele>
        <time>2009-09-29T07:34:29Z</time>
      </trkpt>
      <trkpt lat="45.63528" lon="4.59578">
        <ele>860</ele>
        <time>2009-09-29T07:34:37Z</time>
      </trkpt>
      <trkpt lat="45.63534" lon="4.5959">
        <ele>861</ele>
        <time>2009-09-29T07:34:45Z</time>
      </trkpt>
      <trkpt lat="45.63542" lon="4.596">
        <ele>861</ele>
        <time>2009-09-29T07:34:53Z</time>
      </trkpt>
      <trkpt lat="45.6355" lon="4.5961">
        <ele>861</ele>
        <time>2009-09-29T07:35:01Z</time>
      </trkpt>
      <trkpt lat="45.63557" lon="4.5962">
        <ele>862</ele>
        <time>2009-09-29T07:35:09Z</time>
      </trkpt>
      <trkpt lat="45.63562" lon="4.59633">
        <ele>862</ele>
        <time>2009-09-29T07:35:16Z</time>
      </trkpt>
      <trkpt lat="45.63566" lon="4.59646">
        <ele>862</ele>
        <time>2009-09-29T07:35:23Z</time>
      </trkpt>
      <trkpt lat="45.63571" lon="4.5966">
        <ele>861</ele>
        <time>2009-09-29T07:35:30Z</time>
      </trkpt>
      <trkpt lat="45.63575" lon="4.59672">
        <ele>862</ele>
        <time>2009-09-29T07:35:37Z</time>
      </trkpt>
      <trkpt lat="45.63582" lon="4.59681">
        <ele>862</ele>
        <time>2009-09-29T07:35:45Z</time>
      </trkpt>
      <trkpt lat="45.6359" lon="4.5969">
        <ele>859</ele>
        <time>2009-09-29T07:35:53Z</time>
      </trkpt>
      <trkpt lat="45.63596" lon="4.59699">
        <ele>858</ele>
        <time>2009-09-29T07:36:02Z</time>
      </trkpt>
      <trkpt lat="45.63601" lon="4.59711">
        <ele>857</ele>
        <time>2009-09-29T07:36:10Z</time>
      </trkpt>
      <trkpt lat="45.63606" lon="4.59723">
        <ele>857</ele>
        <time>2009-09-29T07:36:19Z</time>
      </trkpt>
      <trkpt lat="45.63608" lon="4.59736">
        <ele>857</ele>
        <time>2009-09-29T07:36:28Z</time>
      </trkpt>
      <trkpt lat="45.63611" lon="4.5975">
        <ele>857</ele>
        <time>2009-09-29T07:36:36Z</time>
      </trkpt>
      <trkpt lat="45.63613" lon="4.59765">
        <ele>854</ele>
        <time>2009-09-29T07:36:43Z</time>
      </trkpt>
      <trkpt lat="45.63614" lon="4.59779">
        <ele>853</ele>
        <time>2009-09-29T07:36:51Z</time>
      </trkpt>
      <trkpt lat="45.63615" lon="4.59795">
        <ele>853</ele>
        <time>2009-09-29T07:36:59Z</time>
      </trkpt>
      <trkpt lat="45.63616" lon="4.59808">
        <ele>853</ele>
        <time>2009-09-29T07:37:07Z</time>
      </trkpt>
      <trkpt lat="45.63618" lon="4.59822">
        <ele>853</ele>
        <time>2009-09-29T07:37:15Z</time>
      </trkpt>
      <trkpt lat="45.63621" lon="4.59836">
        <ele>853</ele>
        <time>2009-09-29T07:37:23Z</time>
      </trkpt>
      <trkpt lat="45.63624" lon="4.59849">
        <ele>853</ele>
        <time>2009-09-29T07:37:30Z</time>
      </trkpt>
      <trkpt lat="45.63627" lon="4.59863">
        <ele>852</ele>
        <time>2009-09-29T07:37:38Z</time>
      </trkpt>
      <trkpt lat="45.6363" lon="4.59876">
        <ele>852</ele>
        <time>2009-09-29T07:37:46Z</time>
      </trkpt>
      <trkpt lat="45.63632" lon="4.59889">
        <ele>852</ele>
        <time>2009-09-29T07:37:53Z</time>
      </trkpt>
      <trkpt lat="45.63638" lon="4.59901">
        <ele>851</ele>
        <time>2009-09-29T07:38:01Z</time>
      </trkpt>
      <trkpt lat="45.63644" lon="4.59911">
        <ele>850</ele>
        <time>2009-09-29T07:38:09Z</time>
      </trkpt>
      <trkpt lat="45.63651" lon="4.5992">
        <ele>851</ele>
        <time>2009-09-29T07:38:18Z</time>
      </trkpt>
      <trkpt lat="45.63658" lon="4.59928">
        <ele>850</ele>
        <time>2009-09-29T07:38:32Z</time>
      </trkpt>
      <trkpt lat="45.63666" lon="4.59937">
        <ele>851</ele>
        <time>2009-09-29T07:38:42Z</time>
      </trkpt>
      <trkpt lat="45.63673" lon="4.59946">
        <ele>841</ele>
        <time>2009-09-29T07:38:53Z</time>
      </trkpt>
      <trkpt lat="45.6368" lon="4.59956">
        <ele>841</ele>
        <time>2009-09-29T07:39:01Z</time>
      </trkpt>
      <trkpt lat="45.63686" lon="4.59969">
        <ele>841</ele>
        <time>2009-09-29T07:39:10Z</time>
      </trkpt>
      <trkpt lat="45.63694" lon="4.59978">
        <ele>841</ele>
        <time>2009-09-29T07:39:20Z</time>
      </trkpt>
      <trkpt lat="45.637" lon="4.5999">
        <ele>841</ele>
        <time>2009-09-29T07:39:26Z</time>
      </trkpt>
      <trkpt lat="45.63706" lon="4.60002">
        <ele>843</ele>
        <time>2009-09-29T07:39:34Z</time>
      </trkpt>
      <trkpt lat="45.63709" lon="4.60015">
        <ele>842</ele>
        <time>2009-09-29T07:39:41Z</time>
      </trkpt>
      <trkpt lat="45.63716" lon="4.60024">
        <ele>842</ele>
        <time>2009-09-29T07:39:49Z</time>
      </trkpt>
      <trkpt lat="45.63724" lon="4.6003">
        <ele>841</ele>
        <time>2009-09-29T07:40:09Z</time>
      </trkpt>
      <trkpt lat="45.6373" lon="4.60041">
        <ele>841</ele>
        <time>2009-09-29T07:40:22Z</time>
      </trkpt>
      <trkpt lat="45.63737" lon="4.60051">
        <ele>841</ele>
        <time>2009-09-29T07:40:31Z</time>
      </trkpt>
      <trkpt lat="45.63743" lon="4.60061">
        <ele>841</ele>
        <time>2009-09-29T07:40:40Z</time>
      </trkpt>
      <trkpt lat="45.63749" lon="4.60072">
        <ele>840</ele>
        <time>2009-09-29T07:40:49Z</time>
      </trkpt>
      <trkpt lat="45.63755" lon="4.60083">
        <ele>836</ele>
        <time>2009-09-29T07:40:59Z</time>
      </trkpt>
      <trkpt lat="45.6376" lon="4.60095">
        <ele>832</ele>
        <time>2009-09-29T07:41:09Z</time>
      </trkpt>
      <trkpt lat="45.63767" lon="4.60105">
        <ele>829</ele>
        <time>2009-09-29T07:41:24Z</time>
      </trkpt>
      <trkpt lat="45.63774" lon="4.60115">
        <ele>828</ele>
        <time>2009-09-29T07:41:31Z</time>
      </trkpt>
      <trkpt lat="45.6378" lon="4.60126">
        <ele>826</ele>
        <time>2009-09-29T07:41:44Z</time>
      </trkpt>
      <trkpt lat="45.63786" lon="4.60137">
        <ele>826</ele>
        <time>2009-09-29T07:41:51Z</time>
      </trkpt>
      <trkpt lat="45.63786" lon="4.6015">
        <ele>825</ele>
        <time>2009-09-29T07:42:09Z</time>
      </trkpt>
      <trkpt lat="45.63784" lon="4.60163">
        <ele>826</ele>
        <time>2009-09-29T07:42:43Z</time>
      </trkpt>
      <trkpt lat="45.63774" lon="4.60165">
        <ele>827</ele>
        <time>2009-09-29T07:42:53Z</time>
      </trkpt>
      <trkpt lat="45.63765" lon="4.6017">
        <ele>825</ele>
        <time>2009-09-29T07:43:03Z</time>
      </trkpt>
      <trkpt lat="45.6376" lon="4.60182">
        <ele>825</ele>
        <time>2009-09-29T07:43:17Z</time>
      </trkpt>
      <trkpt lat="45.63757" lon="4.60195">
        <ele>823</ele>
        <time>2009-09-29T07:44:31Z</time>
      </trkpt>
      <trkpt lat="45.63748" lon="4.60202">
        <ele>829</ele>
        <time>2009-09-29T07:44:40Z</time>
      </trkpt>
      <trkpt lat="45.63739" lon="4.60206">
        <ele>829</ele>
        <time>2009-09-29T07:44:49Z</time>
      </trkpt>
      <trkpt lat="45.6373" lon="4.60211">
        <ele>829</ele>
        <time>2009-09-29T07:44:58Z</time>
      </trkpt>
      <trkpt lat="45.63721" lon="4.60216">
        <ele>829</ele>
        <time>2009-09-29T07:45:06Z</time>
      </trkpt>
      <trkpt lat="45.63714" lon="4.60227">
        <ele>829</ele>
        <time>2009-09-29T07:45:14Z</time>
      </trkpt>
      <trkpt lat="45.63706" lon="4.60235">
        <ele>829</ele>
        <time>2009-09-29T07:45:22Z</time>
      </trkpt>
      <trkpt lat="45.63697" lon="4.60245">
        <ele>830</ele>
        <time>2009-09-29T07:45:30Z</time>
      </trkpt>
      <trkpt lat="45.63689" lon="4.60252">
        <ele>823</ele>
        <time>2009-09-29T07:45:38Z</time>
      </trkpt>
      <trkpt lat="45.63681" lon="4.60258">
        <ele>824</ele>
        <time>2009-09-29T07:45:47Z</time>
      </trkpt>
      <trkpt lat="45.63671" lon="4.60265">
        <ele>824</ele>
        <time>2009-09-29T07:45:57Z</time>
      </trkpt>
      <trkpt lat="45.63661" lon="4.6027">
        <ele>831</ele>
        <time>2009-09-29T07:46:06Z</time>
      </trkpt>
      <trkpt lat="45.63652" lon="4.60275">
        <ele>831</ele>
        <time>2009-09-29T07:46:13Z</time>
      </trkpt>
      <trkpt lat="45.63643" lon="4.6028">
        <ele>831</ele>
        <time>2009-09-29T07:46:19Z</time>
      </trkpt>
      <trkpt lat="45.63635" lon="4.60286">
        <ele>832</ele>
        <time>2009-09-29T07:46:26Z</time>
      </trkpt>
      <trkpt lat="45.63627" lon="4.60295">
        <ele>832</ele>
        <time>2009-09-29T07:46:37Z</time>
      </trkpt>
      <trkpt lat="45.63621" lon="4.60307">
        <ele>831</ele>
        <time>2009-09-29T07:46:45Z</time>
      </trkpt>
      <trkpt lat="45.63608" lon="4.60312">
        <ele>832</ele>
        <time>2009-09-29T07:46:54Z</time>
      </trkpt>
      <trkpt lat="45.636" lon="4.60325">
        <ele>831</ele>
        <time>2009-09-29T07:47:07Z</time>
      </trkpt>
      <trkpt lat="45.63594" lon="4.60335">
        <ele>825</ele>
        <time>2009-09-29T07:47:10Z</time>
      </trkpt>
      <trkpt lat="45.63586" lon="4.60341">
        <ele>826</ele>
        <time>2009-09-29T07:47:18Z</time>
      </trkpt>
      <trkpt lat="45.63577" lon="4.60348">
        <ele>832</ele>
        <time>2009-09-29T07:47:27Z</time>
      </trkpt>
      <trkpt lat="45.63568" lon="4.60352">
        <ele>832</ele>
        <time>2009-09-29T07:47:33Z</time>
      </trkpt>
      <trkpt lat="45.6356" lon="4.60362">
        <ele>832</ele>
        <time>2009-09-29T07:47:41Z</time>
      </trkpt>
      <trkpt lat="45.63552" lon="4.6037">
        <ele>832</ele>
        <time>2009-09-29T07:47:51Z</time>
      </trkpt>
      <trkpt lat="45.63538" lon="4.60382">
        <ele>832</ele>
        <time>2009-09-29T07:48:02Z</time>
      </trkpt>
      <trkpt lat="45.63528" lon="4.60387">
        <ele>833</ele>
        <time>2009-09-29T07:48:11Z</time>
      </trkpt>
      <trkpt lat="45.63519" lon="4.60392">
        <ele>833</ele>
        <time>2009-09-29T07:48:17Z</time>
      </trkpt>
      <trkpt lat="45.6351" lon="4.60395">
        <ele>833</ele>
        <time>2009-09-29T07:48:26Z</time>
      </trkpt>
      <trkpt lat="45.635" lon="4.60395">
        <ele>844</ele>
        <time>2009-09-29T07:48:36Z</time>
      </trkpt>
      <trkpt lat="45.63491" lon="4.604">
        <ele>843</ele>
        <time>2009-09-29T07:48:51Z</time>
      </trkpt>
      <trkpt lat="45.6348" lon="4.60399">
        <ele>846</ele>
        <time>2009-09-29T07:49:04Z</time>
      </trkpt>
      <trkpt lat="45.63469" lon="4.60399">
        <ele>848</ele>
        <time>2009-09-29T07:49:16Z</time>
      </trkpt>
      <trkpt lat="45.6346" lon="4.60405">
        <ele>849</ele>
        <time>2009-09-29T07:49:22Z</time>
      </trkpt>
      <trkpt lat="45.63449" lon="4.60404">
        <ele>851</ele>
        <time>2009-09-29T07:49:31Z</time>
      </trkpt>
      <trkpt lat="45.63442" lon="4.60414">
        <ele>851</ele>
        <time>2009-09-29T07:49:37Z</time>
      </trkpt>
      <trkpt lat="45.63436" lon="4.60423">
        <ele>841</ele>
        <time>2009-09-29T07:49:48Z</time>
      </trkpt>
      <trkpt lat="45.63426" lon="4.60427">
        <ele>843</ele>
        <time>2009-09-29T07:49:55Z</time>
      </trkpt>
      <trkpt lat="45.63418" lon="4.60433">
        <ele>842</ele>
        <time>2009-09-29T07:50:03Z</time>
      </trkpt>
      <trkpt lat="45.6341" lon="4.60441">
        <ele>847</ele>
        <time>2009-09-29T07:50:10Z</time>
      </trkpt>
      <trkpt lat="45.63405" lon="4.60453">
        <ele>846</ele>
        <time>2009-09-29T07:50:19Z</time>
      </trkpt>
      <trkpt lat="45.63402" lon="4.60466">
        <ele>844</ele>
        <time>2009-09-29T07:50:27Z</time>
      </trkpt>
      <trkpt lat="45.63395" lon="4.60476">
        <ele>843</ele>
        <time>2009-09-29T07:50:38Z</time>
      </trkpt>
      <trkpt lat="45.63388" lon="4.60485">
        <ele>843</ele>
        <time>2009-09-29T07:50:47Z</time>
      </trkpt>
      <trkpt lat="45.6338" lon="4.60491">
        <ele>843</ele>
        <time>2009-09-29T07:50:55Z</time>
      </trkpt>
      <trkpt lat="45.6337" lon="4.60496">
        <ele>843</ele>
        <time>2009-09-29T07:51:03Z</time>
      </trkpt>
      <trkpt lat="45.63361" lon="4.60501">
        <ele>832</ele>
        <time>2009-09-29T07:51:13Z</time>
      </trkpt>
      <trkpt lat="45.63352" lon="4.60502">
        <ele>834</ele>
        <time>2009-09-29T07:51:21Z</time>
      </trkpt>
      <trkpt lat="45.63343" lon="4.605">
        <ele>841</ele>
        <time>2009-09-29T07:51:31Z</time>
      </trkpt>
      <trkpt lat="45.63334" lon="4.60496">
        <ele>840</ele>
        <time>2009-09-29T07:51:40Z</time>
      </trkpt>
      <trkpt lat="45.63323" lon="4.60493">
        <ele>841</ele>
        <time>2009-09-29T07:51:46Z</time>
      </trkpt>
      <trkpt lat="45.63312" lon="4.60488">
        <ele>841</ele>
        <time>2009-09-29T07:51:55Z</time>
      </trkpt>
      <trkpt lat="45.63308" lon="4.60476">
        <ele>843</ele>
        <time>2009-09-29T07:52:05Z</time>
      </trkpt>
      <trkpt lat="45.633" lon="4.6047">
        <ele>843</ele>
        <time>2009-09-29T07:52:14Z</time>
      </trkpt>
      <trkpt lat="45.63291" lon="4.60464">
        <ele>843</ele>
        <time>2009-09-29T07:52:22Z</time>
      </trkpt>
      <trkpt lat="45.63283" lon="4.60458">
        <ele>843</ele>
        <time>2009-09-29T07:52:31Z</time>
      </trkpt>
      <trkpt lat="45.63274" lon="4.60451">
        <ele>843</ele>
        <time>2009-09-29T07:52:42Z</time>
      </trkpt>
      <trkpt lat="45.63264" lon="4.60446">
        <ele>844</ele>
        <time>2009-09-29T07:52:47Z</time>
      </trkpt>
      <trkpt lat="45.63254" lon="4.60443">
        <ele>844</ele>
        <time>2009-09-29T07:52:54Z</time>
      </trkpt>
      <trkpt lat="45.63247" lon="4.60433">
        <ele>837</ele>
        <time>2009-09-29T07:53:01Z</time>
      </trkpt>
      <trkpt lat="45.63243" lon="4.60421">
        <ele>842</ele>
        <time>2009-09-29T07:53:07Z</time>
      </trkpt>
      <trkpt lat="45.63234" lon="4.60414">
        <ele>849</ele>
        <time>2009-09-29T07:53:15Z</time>
      </trkpt>
      <trkpt lat="45.63223" lon="4.6041">
        <ele>849</ele>
        <time>2009-09-29T07:53:21Z</time>
      </trkpt>
      <trkpt lat="45.63215" lon="4.60402">
        <ele>848</ele>
        <time>2009-09-29T07:53:29Z</time>
      </trkpt>
      <trkpt lat="45.63206" lon="4.60396">
        <ele>847</ele>
        <time>2009-09-29T07:53:37Z</time>
      </trkpt>
      <trkpt lat="45.63199" lon="4.60385">
        <ele>848</ele>
        <time>2009-09-29T07:53:45Z</time>
      </trkpt>
      <trkpt lat="45.63191" lon="4.60379">
        <ele>848</ele>
        <time>2009-09-29T07:53:52Z</time>
      </trkpt>
      <trkpt lat="45.63182" lon="4.60375">
        <ele>847</ele>
        <time>2009-09-29T07:53:57Z</time>
      </trkpt>
      <trkpt lat="45.63177" lon="4.60363">
        <ele>849</ele>
        <time>2009-09-29T07:54:05Z</time>
      </trkpt>
      <trkpt lat="45.6317" lon="4.60352">
        <ele>850</ele>
        <time>2009-09-29T07:54:13Z</time>
      </trkpt>
      <trkpt lat="45.63163" lon="4.60344">
        <ele>839</ele>
        <time>2009-09-29T07:54:20Z</time>
      </trkpt>
      <trkpt lat="45.63158" lon="4.60332">
        <ele>847</ele>
        <time>2009-09-29T07:54:28Z</time>
      </trkpt>
      <trkpt lat="45.63149" lon="4.60323">
        <ele>844</ele>
        <time>2009-09-29T07:54:36Z</time>
      </trkpt>
      <trkpt lat="45.6314" lon="4.60316">
        <ele>842</ele>
        <time>2009-09-29T07:54:43Z</time>
      </trkpt>
      <trkpt lat="45.63138" lon="4.60302">
        <ele>842</ele>
        <time>2009-09-29T07:54:51Z</time>
      </trkpt>
      <trkpt lat="45.63132" lon="4.60291">
        <ele>842</ele>
        <time>2009-09-29T07:54:58Z</time>
      </trkpt>
      <trkpt lat="45.63128" lon="4.60278">
        <ele>842</ele>
        <time>2009-09-29T07:55:06Z</time>
      </trkpt>
      <trkpt lat="45.63121" lon="4.60268">
        <ele>842</ele>
        <time>2009-09-29T07:55:13Z</time>
      </trkpt>
      <trkpt lat="45.63116" lon="4.60257">
        <ele>841</ele>
        <time>2009-09-29T07:55:20Z</time>
      </trkpt>
      <trkpt lat="45.63111" lon="4.60246">
        <ele>849</ele>
        <time>2009-09-29T07:55:28Z</time>
      </trkpt>
      <trkpt lat="45.63106" lon="4.60232">
        <ele>849</ele>
        <time>2009-09-29T07:55:38Z</time>
      </trkpt>
      <trkpt lat="45.63099" lon="4.60222">
        <ele>849</ele>
        <time>2009-09-29T07:55:48Z</time>
      </trkpt>
      <trkpt lat="45.63093" lon="4.6021">
        <ele>850</ele>
        <time>2009-09-29T07:55:55Z</time>
      </trkpt>
      <trkpt lat="45.63087" lon="4.602">
        <ele>851</ele>
        <time>2009-09-29T07:56:03Z</time>
      </trkpt>
      <trkpt lat="45.63081" lon="4.60189">
        <ele>840</ele>
        <time>2009-09-29T07:56:12Z</time>
      </trkpt>
      <trkpt lat="45.63073" lon="4.60183">
        <ele>841</ele>
        <time>2009-09-29T07:56:50Z</time>
      </trkpt>
      <trkpt lat="45.63068" lon="4.60171">
        <ele>842</ele>
        <time>2009-09-29T07:56:57Z</time>
      </trkpt>
      <trkpt lat="45.63065" lon="4.60158">
        <ele>848</ele>
        <time>2009-09-29T07:57:05Z</time>
      </trkpt>
      <trkpt lat="45.63056" lon="4.60152">
        <ele>848</ele>
        <time>2009-09-29T07:57:10Z</time>
      </trkpt>
      <trkpt lat="45.63048" lon="4.60146">
        <ele>847</ele>
        <time>2009-09-29T07:57:20Z</time>
      </trkpt>
      <trkpt lat="45.63038" lon="4.60141">
        <ele>847</ele>
        <time>2009-09-29T07:57:29Z</time>
      </trkpt>
      <trkpt lat="45.63028" lon="4.60143">
        <ele>846</ele>
        <time>2009-09-29T07:57:36Z</time>
      </trkpt>
      <trkpt lat="45.63019" lon="4.60154">
        <ele>844</ele>
        <time>2009-09-29T07:57:46Z</time>
      </trkpt>
      <trkpt lat="45.63011" lon="4.6016">
        <ele>841</ele>
        <time>2009-09-29T07:57:53Z</time>
      </trkpt>
      <trkpt lat="45.63002" lon="4.60154">
        <ele>841</ele>
        <time>2009-09-29T07:58:53Z</time>
      </trkpt>
      <trkpt lat="45.62995" lon="4.60163">
        <ele>838</ele>
        <time>2009-09-29T07:59:00Z</time>
      </trkpt>
      <trkpt lat="45.62987" lon="4.60174">
        <ele>834</ele>
        <time>2009-09-29T07:59:18Z</time>
      </trkpt>
      <trkpt lat="45.62979" lon="4.60184">
        <ele>833</ele>
        <time>2009-09-29T07:59:30Z</time>
      </trkpt>
      <trkpt lat="45.6297" lon="4.60193">
        <ele>832</ele>
        <time>2009-09-29T07:59:37Z</time>
      </trkpt>
      <trkpt lat="45.62963" lon="4.60203">
        <ele>832</ele>
        <time>2009-09-29T07:59:47Z</time>
      </trkpt>
      <trkpt lat="45.62956" lon="4.60212">
        <ele>831</ele>
        <time>2009-09-29T07:59:55Z</time>
      </trkpt>
      <trkpt lat="45.62949" lon="4.60221">
        <ele>831</ele>
        <time>2009-09-29T08:00:03Z</time>
      </trkpt>
      <trkpt lat="45.62943" lon="4.60232">
        <ele>831</ele>
        <time>2009-09-29T08:00:10Z</time>
      </trkpt>
      <trkpt lat="45.62937" lon="4.60244">
        <ele>831</ele>
        <time>2009-09-29T08:00:20Z</time>
      </trkpt>
      <trkpt lat="45.6293" lon="4.60255">
        <ele>825</ele>
        <time>2009-09-29T08:00:29Z</time>
      </trkpt>
      <trkpt lat="45.62926" lon="4.60267">
        <ele>823</ele>
        <time>2009-09-29T08:00:37Z</time>
      </trkpt>
      <trkpt lat="45.62922" lon="4.60279">
        <ele>821</ele>
        <time>2009-09-29T08:00:45Z</time>
      </trkpt>
      <trkpt lat="45.62916" lon="4.60291">
        <ele>829</ele>
        <time>2009-09-29T08:00:53Z</time>
      </trkpt>
      <trkpt lat="45.62911" lon="4.60304">
        <ele>827</ele>
        <time>2009-09-29T08:01:02Z</time>
      </trkpt>
      <trkpt lat="45.62907" lon="4.60316">
        <ele>825</ele>
        <time>2009-09-29T08:01:10Z</time>
      </trkpt>
      <trkpt lat="45.62903" lon="4.60329">
        <ele>823</ele>
        <time>2009-09-29T08:01:18Z</time>
      </trkpt>
      <trkpt lat="45.62896" lon="4.6034">
        <ele>820</ele>
        <time>2009-09-29T08:01:27Z</time>
      </trkpt>
      <trkpt lat="45.62893" lon="4.60352">
        <ele>820</ele>
        <time>2009-09-29T08:01:37Z</time>
      </trkpt>
      <trkpt lat="45.62889" lon="4.60365">
        <ele>820</ele>
        <time>2009-09-29T08:01:46Z</time>
      </trkpt>
      <trkpt lat="45.62884" lon="4.60378">
        <ele>820</ele>
        <time>2009-09-29T08:01:58Z</time>
      </trkpt>
      <trkpt lat="45.62881" lon="4.6039">
        <ele>819</ele>
        <time>2009-09-29T08:02:05Z</time>
      </trkpt>
      <trkpt lat="45.62877" lon="4.60404">
        <ele>819</ele>
        <time>2009-09-29T08:02:12Z</time>
      </trkpt>
      <trkpt lat="45.62871" lon="4.60415">
        <ele>820</ele>
        <time>2009-09-29T08:02:20Z</time>
      </trkpt>
      <trkpt lat="45.62867" lon="4.60429">
        <ele>812</ele>
        <time>2009-09-29T08:02:29Z</time>
      </trkpt>
      <trkpt lat="45.62863" lon="4.60442">
        <ele>812</ele>
        <time>2009-09-29T08:02:37Z</time>
      </trkpt>
      <trkpt lat="45.62864" lon="4.60456">
        <ele>810</ele>
        <time>2009-09-29T08:02:50Z</time>
      </trkpt>
      <trkpt lat="45.62858" lon="4.60467">
        <ele>810</ele>
        <time>2009-09-29T08:02:59Z</time>
      </trkpt>
      <trkpt lat="45.62854" lon="4.60479">
        <ele>810</ele>
        <time>2009-09-29T08:03:08Z</time>
      </trkpt>
      <trkpt lat="45.62848" lon="4.6049">
        <ele>810</ele>
        <time>2009-09-29T08:03:17Z</time>
      </trkpt>
      <trkpt lat="45.62841" lon="4.605">
        <ele>811</ele>
        <time>2009-09-29T08:03:26Z</time>
      </trkpt>
      <trkpt lat="45.62833" lon="4.60507">
        <ele>810</ele>
        <time>2009-09-29T08:03:34Z</time>
      </trkpt>
      <trkpt lat="45.62824" lon="4.60514">
        <ele>809</ele>
        <time>2009-09-29T08:03:42Z</time>
      </trkpt>
      <trkpt lat="45.62814" lon="4.60517">
        <ele>808</ele>
        <time>2009-09-29T08:03:52Z</time>
      </trkpt>
      <trkpt lat="45.62803" lon="4.60516">
        <ele>809</ele>
        <time>2009-09-29T08:04:03Z</time>
      </trkpt>
      <trkpt lat="45.62793" lon="4.60519">
        <ele>809</ele>
        <time>2009-09-29T08:04:15Z</time>
      </trkpt>
      <trkpt lat="45.62787" lon="4.60529">
        <ele>808</ele>
        <time>2009-09-29T08:04:26Z</time>
      </trkpt>
      <trkpt lat="45.62777" lon="4.6053">
        <ele>809</ele>
        <time>2009-09-29T08:04:34Z</time>
      </trkpt>
      <trkpt lat="45.62768" lon="4.60534">
        <ele>809</ele>
        <time>2009-09-29T08:04:46Z</time>
      </trkpt>
      <trkpt lat="45.6276" lon="4.60545">
        <ele>808</ele>
        <time>2009-09-29T08:04:57Z</time>
      </trkpt>
      <trkpt lat="45.62753" lon="4.60554">
        <ele>806</ele>
        <time>2009-09-29T08:05:02Z</time>
      </trkpt>
      <trkpt lat="45.62743" lon="4.60554">
        <ele>818</ele>
        <time>2009-09-29T08:05:07Z</time>
      </trkpt>
      <trkpt lat="45.62736" lon="4.60569">
        <ele>815</ele>
        <time>2009-09-29T08:05:18Z</time>
      </trkpt>
      <trkpt lat="45.62729" lon="4.60582">
        <ele>815</ele>
        <time>2009-09-29T08:05:28Z</time>
      </trkpt>
      <trkpt lat="45.62723" lon="4.60591">
        <ele>807</ele>
        <time>2009-09-29T08:05:37Z</time>
      </trkpt>
      <trkpt lat="45.62719" lon="4.60603">
        <ele>807</ele>
        <time>2009-09-29T08:05:46Z</time>
      </trkpt>
      <trkpt lat="45.62712" lon="4.60613">
        <ele>807</ele>
        <time>2009-09-29T08:05:56Z</time>
      </trkpt>
      <trkpt lat="45.62707" lon="4.60625">
        <ele>807</ele>
        <time>2009-09-29T08:06:03Z</time>
      </trkpt>
      <trkpt lat="45.62702" lon="4.6064">
        <ele>807</ele>
        <time>2009-09-29T08:06:12Z</time>
      </trkpt>
      <trkpt lat="45.62698" lon="4.60653">
        <ele>807</ele>
        <time>2009-09-29T08:06:18Z</time>
      </trkpt>
      <trkpt lat="45.62691" lon="4.60662">
        <ele>809</ele>
        <time>2009-09-29T08:06:28Z</time>
      </trkpt>
      <trkpt lat="45.6269" lon="4.60675">
        <ele>803</ele>
        <time>2009-09-29T08:06:36Z</time>
      </trkpt>
      <trkpt lat="45.62688" lon="4.60688">
        <ele>802</ele>
        <time>2009-09-29T08:06:43Z</time>
      </trkpt>
      <trkpt lat="45.62686" lon="4.60702">
        <ele>801</ele>
        <time>2009-09-29T08:06:51Z</time>
      </trkpt>
      <trkpt lat="45.62686" lon="4.60716">
        <ele>800</ele>
        <time>2009-09-29T08:06:58Z</time>
      </trkpt>
      <trkpt lat="45.62688" lon="4.6073">
        <ele>801</ele>
        <time>2009-09-29T08:07:07Z</time>
      </trkpt>
      <trkpt lat="45.62688" lon="4.60743">
        <ele>801</ele>
        <time>2009-09-29T08:07:20Z</time>
      </trkpt>
      <trkpt lat="45.62688" lon="4.60757">
        <ele>799</ele>
        <time>2009-09-29T08:07:26Z</time>
      </trkpt>
      <trkpt lat="45.62693" lon="4.60769">
        <ele>796</ele>
        <time>2009-09-29T08:07:31Z</time>
      </trkpt>
      <trkpt lat="45.62697" lon="4.60783">
        <ele>795</ele>
        <time>2009-09-29T08:07:38Z</time>
      </trkpt>
      <trkpt lat="45.62702" lon="4.60794">
        <ele>793</ele>
        <time>2009-09-29T08:07:46Z</time>
      </trkpt>
      <trkpt lat="45.62704" lon="4.60809">
        <ele>793</ele>
        <time>2009-09-29T08:07:53Z</time>
      </trkpt>
      <trkpt lat="45.62705" lon="4.60822">
        <ele>792</ele>
        <time>2009-09-29T08:08:00Z</time>
      </trkpt>
      <trkpt lat="45.62708" lon="4.60836">
        <ele>790</ele>
        <time>2009-09-29T08:08:07Z</time>
      </trkpt>
      <trkpt lat="45.62711" lon="4.60848">
        <ele>789</ele>
        <time>2009-09-29T08:08:14Z</time>
      </trkpt>
      <trkpt lat="45.62714" lon="4.60861">
        <ele>789</ele>
        <time>2009-09-29T08:08:22Z</time>
      </trkpt>
      <trkpt lat="45.62716" lon="4.60874">
        <ele>788</ele>
        <time>2009-09-29T08:08:29Z</time>
      </trkpt>
      <trkpt lat="45.62717" lon="4.60887">
        <ele>788</ele>
        <time>2009-09-29T08:08:41Z</time>
      </trkpt>
      <trkpt lat="45.62727" lon="4.60886">
        <ele>786</ele>
        <time>2009-09-29T08:11:30Z</time>
      </trkpt>
      <trkpt lat="45.62732" lon="4.60897">
        <ele>784</ele>
        <time>2009-09-29T08:11:43Z</time>
      </trkpt>
      <trkpt lat="45.62736" lon="4.60909">
        <ele>782</ele>
        <time>2009-09-29T08:11:56Z</time>
      </trkpt>
      <trkpt lat="45.62738" lon="4.60922">
        <ele>778</ele>
        <time>2009-09-29T08:12:05Z</time>
      </trkpt>
      <trkpt lat="45.62733" lon="4.60934">
        <ele>778</ele>
        <time>2009-09-29T08:12:17Z</time>
      </trkpt>
      <trkpt lat="45.62732" lon="4.60947">
        <ele>778</ele>
        <time>2009-09-29T08:12:32Z</time>
      </trkpt>
      <trkpt lat="45.62728" lon="4.60961">
        <ele>777</ele>
        <time>2009-09-29T08:12:39Z</time>
      </trkpt>
      <trkpt lat="45.62726" lon="4.60973">
        <ele>776</ele>
        <time>2009-09-29T08:12:46Z</time>
      </trkpt>
      <trkpt lat="45.6272" lon="4.60986">
        <ele>776</ele>
        <time>2009-09-29T08:12:55Z</time>
      </trkpt>
      <trkpt lat="45.62716" lon="4.60997">
        <ele>776</ele>
        <time>2009-09-29T08:13:03Z</time>
      </trkpt>
      <trkpt lat="45.62708" lon="4.61006">
        <ele>766</ele>
        <time>2009-09-29T08:13:12Z</time>
      </trkpt>
      <trkpt lat="45.62703" lon="4.61017">
        <ele>766</ele>
        <time>2009-09-29T08:13:22Z</time>
      </trkpt>
      <trkpt lat="45.62697" lon="4.6103">
        <ele>765</ele>
        <time>2009-09-29T08:13:30Z</time>
      </trkpt>
      <trkpt lat="45.62692" lon="4.61042">
        <ele>764</ele>
        <time>2009-09-29T08:13:39Z</time>
      </trkpt>
      <trkpt lat="45.62688" lon="4.61053">
        <ele>762</ele>
        <time>2009-09-29T08:13:50Z</time>
      </trkpt>
      <trkpt lat="45.62681" lon="4.61065">
        <ele>761</ele>
        <time>2009-09-29T08:13:58Z</time>
      </trkpt>
      <trkpt lat="45.62675" lon="4.61075">
        <ele>760</ele>
        <time>2009-09-29T08:14:07Z</time>
      </trkpt>
      <trkpt lat="45.62668" lon="4.61085">
        <ele>757</ele>
        <time>2009-09-29T08:14:16Z</time>
      </trkpt>
      <trkpt lat="45.62662" lon="4.61096">
        <ele>756</ele>
        <time>2009-09-29T08:14:28Z</time>
      </trkpt>
      <trkpt lat="45.62654" lon="4.61103">
        <ele>754</ele>
        <time>2009-09-29T08:14:38Z</time>
      </trkpt>
      <trkpt lat="45.62648" lon="4.61112">
        <ele>753</ele>
        <time>2009-09-29T08:14:49Z</time>
      </trkpt>
      <trkpt lat="45.62641" lon="4.61122">
        <ele>752</ele>
        <time>2009-09-29T08:15:00Z</time>
      </trkpt>
      <trkpt lat="45.62633" lon="4.61132">
        <ele>751</ele>
        <time>2009-09-29T08:15:10Z</time>
      </trkpt>
      <trkpt lat="45.62626" lon="4.61142">
        <ele>750</ele>
        <time>2009-09-29T08:15:19Z</time>
      </trkpt>
      <trkpt lat="45.62618" lon="4.61151">
        <ele>749</ele>
        <time>2009-09-29T08:15:30Z</time>
      </trkpt>
      <trkpt lat="45.62608" lon="4.6115">
        <ele>749</ele>
        <time>2009-09-29T08:15:42Z</time>
      </trkpt>
      <trkpt lat="45.626" lon="4.61156">
        <ele>747</ele>
        <time>2009-09-29T08:15:53Z</time>
      </trkpt>
      <trkpt lat="45.62591" lon="4.61165">
        <ele>745</ele>
        <time>2009-09-29T08:16:04Z</time>
      </trkpt>
      <trkpt lat="45.62582" lon="4.61168">
        <ele>741</ele>
        <time>2009-09-29T08:16:16Z</time>
      </trkpt>
      <trkpt lat="45.62574" lon="4.61175">
        <ele>737</ele>
        <time>2009-09-29T08:16:24Z</time>
      </trkpt>
      <trkpt lat="45.6257" lon="4.61187">
        <ele>733</ele>
        <time>2009-09-29T08:16:37Z</time>
      </trkpt>
      <trkpt lat="45.6256" lon="4.61192">
        <ele>732</ele>
        <time>2009-09-29T08:16:44Z</time>
      </trkpt>
      <trkpt lat="45.6255" lon="4.61196">
        <ele>731</ele>
        <time>2009-09-29T08:16:51Z</time>
      </trkpt>
      <trkpt lat="45.6254" lon="4.61196">
        <ele>731</ele>
        <time>2009-09-29T08:17:05Z</time>
      </trkpt>
      <trkpt lat="45.62529" lon="4.61197">
        <ele>731</ele>
        <time>2009-09-29T08:17:12Z</time>
      </trkpt>
      <trkpt lat="45.62521" lon="4.61203">
        <ele>730</ele>
        <time>2009-09-29T08:17:18Z</time>
      </trkpt>
      <trkpt lat="45.62512" lon="4.61207">
        <ele>729</ele>
        <time>2009-09-29T08:17:28Z</time>
      </trkpt>
      <trkpt lat="45.62504" lon="4.61212">
        <ele>728</ele>
        <time>2009-09-29T08:17:39Z</time>
      </trkpt>
      <trkpt lat="45.62495" lon="4.61218">
        <ele>724</ele>
        <time>2009-09-29T08:17:49Z</time>
      </trkpt>
      <trkpt lat="45.62485" lon="4.61221">
        <ele>723</ele>
        <time>2009-09-29T08:17:58Z</time>
      </trkpt>
      <trkpt lat="45.62475" lon="4.61227">
        <ele>722</ele>
        <time>2009-09-29T08:18:09Z</time>
      </trkpt>
      <trkpt lat="45.62465" lon="4.61229">
        <ele>721</ele>
        <time>2009-09-29T08:18:21Z</time>
      </trkpt>
      <trkpt lat="45.62456" lon="4.61234">
        <ele>720</ele>
        <time>2009-09-29T08:18:28Z</time>
      </trkpt>
      <trkpt lat="45.62446" lon="4.61234">
        <ele>719</ele>
        <time>2009-09-29T08:18:42Z</time>
      </trkpt>
      <trkpt lat="45.62436" lon="4.61235">
        <ele>718</ele>
        <time>2009-09-29T08:18:49Z</time>
      </trkpt>
      <trkpt lat="45.62428" lon="4.61241">
        <ele>714</ele>
        <time>2009-09-29T08:19:08Z</time>
      </trkpt>
      <trkpt lat="45.62418" lon="4.61242">
        <ele>711</ele>
        <time>2009-09-29T08:19:15Z</time>
      </trkpt>
      <trkpt lat="45.62408" lon="4.61241">
        <ele>710</ele>
        <time>2009-09-29T08:19:26Z</time>
      </trkpt>
      <trkpt lat="45.62398" lon="4.61247">
        <ele>711</ele>
        <time>2009-09-29T08:19:32Z</time>
      </trkpt>
      <trkpt lat="45.62388" lon="4.61248">
        <ele>712</ele>
        <time>2009-09-29T08:19:43Z</time>
      </trkpt>
      <trkpt lat="45.62379" lon="4.61252">
        <ele>697</ele>
        <time>2009-09-29T08:19:51Z</time>
      </trkpt>
      <trkpt lat="45.6237" lon="4.61251">
        <ele>697</ele>
        <time>2009-09-29T08:20:06Z</time>
      </trkpt>
      <trkpt lat="45.62361" lon="4.61254">
        <ele>697</ele>
        <time>2009-09-29T08:20:15Z</time>
      </trkpt>
      <trkpt lat="45.62351" lon="4.61257">
        <ele>698</ele>
        <time>2009-09-29T08:20:25Z</time>
      </trkpt>
      <trkpt lat="45.62342" lon="4.61262">
        <ele>698</ele>
        <time>2009-09-29T08:20:32Z</time>
      </trkpt>
      <trkpt lat="45.62332" lon="4.61269">
        <ele>693</ele>
        <time>2009-09-29T08:20:42Z</time>
      </trkpt>
      <trkpt lat="45.62325" lon="4.61279">
        <ele>690</ele>
        <time>2009-09-29T08:20:55Z</time>
      </trkpt>
      <trkpt lat="45.62317" lon="4.61286">
        <ele>687</ele>
        <time>2009-09-29T08:21:10Z</time>
      </trkpt>
      <trkpt lat="45.6231" lon="4.61294">
        <ele>685</ele>
        <time>2009-09-29T08:21:18Z</time>
      </trkpt>
      <trkpt lat="45.62301" lon="4.613">
        <ele>684</ele>
        <time>2009-09-29T08:21:30Z</time>
      </trkpt>
      <trkpt lat="45.6229" lon="4.61303">
        <ele>683</ele>
        <time>2009-09-29T08:21:38Z</time>
      </trkpt>
      <trkpt lat="45.62279" lon="4.61306">
        <ele>682</ele>
        <time>2009-09-29T08:21:52Z</time>
      </trkpt>
      <trkpt lat="45.62269" lon="4.6131">
        <ele>679</ele>
        <time>2009-09-29T08:22:02Z</time>
      </trkpt>
      <trkpt lat="45.6226" lon="4.61318">
        <ele>676</ele>
        <time>2009-09-29T08:22:09Z</time>
      </trkpt>
      <trkpt lat="45.62252" lon="4.61324">
        <ele>672</ele>
        <time>2009-09-29T08:22:22Z</time>
      </trkpt>
      <trkpt lat="45.62245" lon="4.61334">
        <ele>663</ele>
        <time>2009-09-29T08:22:31Z</time>
      </trkpt>
      <trkpt lat="45.62236" lon="4.61341">
        <ele>659</ele>
        <time>2009-09-29T08:22:39Z</time>
      </trkpt>
      <trkpt lat="45.62226" lon="4.61346">
        <ele>656</ele>
        <time>2009-09-29T08:22:48Z</time>
      </trkpt>
      <trkpt lat="45.62217" lon="4.61348">
        <ele>655</ele>
        <time>2009-09-29T08:22:58Z</time>
      </trkpt>
      <trkpt lat="45.62207" lon="4.61351">
        <ele>653</ele>
        <time>2009-09-29T08:23:08Z</time>
      </trkpt>
      <trkpt lat="45.62197" lon="4.61358">
        <ele>652</ele>
        <time>2009-09-29T08:23:14Z</time>
      </trkpt>
      <trkpt lat="45.62187" lon="4.61354">
        <ele>652</ele>
        <time>2009-09-29T08:23:25Z</time>
      </trkpt>
      <trkpt lat="45.62177" lon="4.61355">
        <ele>652</ele>
        <time>2009-09-29T08:23:33Z</time>
      </trkpt>
      <trkpt lat="45.62168" lon="4.61351">
        <ele>652</ele>
        <time>2009-09-29T08:23:43Z</time>
      </trkpt>
      <trkpt lat="45.62159" lon="4.61344">
        <ele>649</ele>
        <time>2009-09-29T08:23:53Z</time>
      </trkpt>
      <trkpt lat="45.62151" lon="4.61334">
        <ele>648</ele>
        <time>2009-09-29T08:24:03Z</time>
      </trkpt>
      <trkpt lat="45.62145" lon="4.61324">
        <ele>659</ele>
        <time>2009-09-29T08:24:14Z</time>
      </trkpt>
      <trkpt lat="45.62136" lon="4.61315">
        <ele>661</ele>
        <time>2009-09-29T08:24:22Z</time>
      </trkpt>
      <trkpt lat="45.62129" lon="4.61305">
        <ele>662</ele>
        <time>2009-09-29T08:24:31Z</time>
      </trkpt>
      <trkpt lat="45.62121" lon="4.61298">
        <ele>662</ele>
        <time>2009-09-29T08:24:39Z</time>
      </trkpt>
      <trkpt lat="45.62113" lon="4.6129">
        <ele>663</ele>
        <time>2009-09-29T08:24:49Z</time>
      </trkpt>
      <trkpt lat="45.62107" lon="4.6128">
        <ele>665</ele>
        <time>2009-09-29T08:24:56Z</time>
      </trkpt>
      <trkpt lat="45.62099" lon="4.61271">
        <ele>666</ele>
        <time>2009-09-29T08:25:04Z</time>
      </trkpt>
      <trkpt lat="45.62088" lon="4.61268">
        <ele>667</ele>
        <time>2009-09-29T08:25:13Z</time>
      </trkpt>
      <trkpt lat="45.6208" lon="4.6126">
        <ele>667</ele>
        <time>2009-09-29T08:25:23Z</time>
      </trkpt>
      <trkpt lat="45.62071" lon="4.61256">
        <ele>665</ele>
        <time>2009-09-29T08:25:30Z</time>
      </trkpt>
      <trkpt lat="45.62062" lon="4.61255">
        <ele>663</ele>
        <time>2009-09-29T08:25:43Z</time>
      </trkpt>
      <trkpt lat="45.62054" lon="4.61248">
        <ele>675</ele>
        <time>2009-09-29T08:26:25Z</time>
      </trkpt>
      <trkpt lat="45.62045" lon="4.61242">
        <ele>675</ele>
        <time>2009-09-29T08:26:40Z</time>
      </trkpt>
      <trkpt lat="45.62036" lon="4.61235">
        <ele>675</ele>
        <time>2009-09-29T08:26:50Z</time>
      </trkpt>
      <trkpt lat="45.62033" lon="4.6122">
        <ele>676</ele>
        <time>2009-09-29T08:26:59Z</time>
      </trkpt>
      <trkpt lat="45.62026" lon="4.61211">
        <ele>676</ele>
        <time>2009-09-29T08:27:09Z</time>
      </trkpt>
      <trkpt lat="45.62019" lon="4.61202">
        <ele>677</ele>
        <time>2009-09-29T08:27:21Z</time>
      </trkpt>
      <trkpt lat="45.62013" lon="4.61191">
        <ele>678</ele>
        <time>2009-09-29T08:27:29Z</time>
      </trkpt>
      <trkpt lat="45.62007" lon="4.61181">
        <ele>678</ele>
        <time>2009-09-29T08:27:42Z</time>
      </trkpt>
      <trkpt lat="45.62004" lon="4.61167">
        <ele>679</ele>
        <time>2009-09-29T08:27:54Z</time>
      </trkpt>
      <trkpt lat="45.62002" lon="4.61154">
        <ele>685</ele>
        <time>2009-09-29T08:28:02Z</time>
      </trkpt>
      <trkpt lat="45.61995" lon="4.61145">
        <ele>675</ele>
        <time>2009-09-29T08:28:11Z</time>
      </trkpt>
      <trkpt lat="45.61989" lon="4.61135">
        <ele>674</ele>
        <time>2009-09-29T08:28:22Z</time>
      </trkpt>
      <trkpt lat="45.61988" lon="4.61121">
        <ele>675</ele>
        <time>2009-09-29T08:28:35Z</time>
      </trkpt>
      <trkpt lat="45.61991" lon="4.61109">
        <ele>677</ele>
        <time>2009-09-29T08:28:48Z</time>
      </trkpt>
      <trkpt lat="45.61995" lon="4.61096">
        <ele>680</ele>
        <time>2009-09-29T08:29:00Z</time>
      </trkpt>
      <trkpt lat="45.62" lon="4.61084">
        <ele>687</ele>
        <time>2009-09-29T08:29:06Z</time>
      </trkpt>
      <trkpt lat="45.62004" lon="4.6107">
        <ele>693</ele>
        <time>2009-09-29T08:29:15Z</time>
      </trkpt>
      <trkpt lat="45.62009" lon="4.61059">
        <ele>695</ele>
        <time>2009-09-29T08:29:24Z</time>
      </trkpt>
      <trkpt lat="45.62013" lon="4.61045">
        <ele>697</ele>
        <time>2009-09-29T08:29:35Z</time>
      </trkpt>
      <trkpt lat="45.62014" lon="4.61031">
        <ele>697</ele>
        <time>2009-09-29T08:29:44Z</time>
      </trkpt>
      <trkpt lat="45.62017" lon="4.61017">
        <ele>696</ele>
        <time>2009-09-29T08:29:53Z</time>
      </trkpt>
      <trkpt lat="45.62016" lon="4.61004">
        <ele>694</ele>
        <time>2009-09-29T08:30:01Z</time>
      </trkpt>
      <trkpt lat="45.62022" lon="4.60993">
        <ele>700</ele>
        <time>2009-09-29T08:30:07Z</time>
      </trkpt>
      <trkpt lat="45.62028" lon="4.60981">
        <ele>703</ele>
        <time>2009-09-29T08:30:17Z</time>
      </trkpt>
      <trkpt lat="45.62028" lon="4.60968">
        <ele>705</ele>
        <time>2009-09-29T08:30:30Z</time>
      </trkpt>
      <trkpt lat="45.62032" lon="4.60954">
        <ele>706</ele>
        <time>2009-09-29T08:30:37Z</time>
      </trkpt>
      <trkpt lat="45.62038" lon="4.60942">
        <ele>708</ele>
        <time>2009-09-29T08:30:45Z</time>
      </trkpt>
      <trkpt lat="45.62044" lon="4.60931">
        <ele>710</ele>
        <time>2009-09-29T08:30:54Z</time>
      </trkpt>
      <trkpt lat="45.62049" lon="4.60917">
        <ele>720</ele>
        <time>2009-09-29T08:31:14Z</time>
      </trkpt>
      <trkpt lat="45.62055" lon="4.60906">
        <ele>721</ele>
        <time>2009-09-29T08:31:17Z</time>
      </trkpt>
      <trkpt lat="45.62052" lon="4.60893">
        <ele>721</ele>
        <time>2009-09-29T08:31:23Z</time>
      </trkpt>
      <trkpt lat="45.62043" lon="4.60889">
        <ele>721</ele>
        <time>2009-09-29T08:31:30Z</time>
      </trkpt>
      <trkpt lat="45.62034" lon="4.60883">
        <ele>720</ele>
        <time>2009-09-29T08:31:51Z</time>
      </trkpt>
      <trkpt lat="45.62024" lon="4.60883">
        <ele>719</ele>
        <time>2009-09-29T08:32:00Z</time>
      </trkpt>
      <trkpt lat="45.62015" lon="4.60883">
        <ele>718</ele>
        <time>2009-09-29T08:32:04Z</time>
      </trkpt>
      <trkpt lat="45.62006" lon="4.60887">
        <ele>716</ele>
        <time>2009-09-29T08:32:11Z</time>
      </trkpt>
      <trkpt lat="45.61997" lon="4.60879">
        <ele>714</ele>
        <time>2009-09-29T08:32:22Z</time>
      </trkpt>
      <trkpt lat="45.61988" lon="4.60882">
        <ele>714</ele>
        <time>2009-09-29T08:32:33Z</time>
      </trkpt>
      <trkpt lat="45.61979" lon="4.60885">
        <ele>713</ele>
        <time>2009-09-29T08:33:00Z</time>
      </trkpt>
      <trkpt lat="45.61989" lon="4.60882">
        <ele>714</ele>
        <time>2009-09-29T08:33:57Z</time>
      </trkpt>
      <trkpt lat="45.61996" lon="4.60874">
        <ele>716</ele>
        <time>2009-09-29T08:35:07Z</time>
      </trkpt>
      <trkpt lat="45.61992" lon="4.60886">
        <ele>713</ele>
        <time>2009-09-29T08:35:36Z</time>
      </trkpt>
      <trkpt lat="45.61983" lon="4.60887">
        <ele>713</ele>
        <time>2009-09-29T08:36:01Z</time>
      </trkpt>
      <trkpt lat="45.61977" lon="4.60897">
        <ele>711</ele>
        <time>2009-09-29T08:36:19Z</time>
      </trkpt>
      <trkpt lat="45.61967" lon="4.60902">
        <ele>711</ele>
        <time>2009-09-29T08:36:28Z</time>
      </trkpt>
      <trkpt lat="45.61956" lon="4.60902">
        <ele>711</ele>
        <time>2009-09-29T08:36:40Z</time>
      </trkpt>
      <trkpt lat="45.61946" lon="4.60905">
        <ele>711</ele>
        <time>2009-09-29T08:36:46Z</time>
      </trkpt>
      <trkpt lat="45.61936" lon="4.60909">
        <ele>709</ele>
        <time>2009-09-29T08:36:55Z</time>
      </trkpt>
      <trkpt lat="45.61926" lon="4.6091">
        <ele>706</ele>
        <time>2009-09-29T08:37:04Z</time>
      </trkpt>
      <trkpt lat="45.61917" lon="4.60909">
        <ele>704</ele>
        <time>2009-09-29T08:37:15Z</time>
      </trkpt>
      <trkpt lat="45.6191" lon="4.60918">
        <ele>698</ele>
        <time>2009-09-29T08:37:26Z</time>
      </trkpt>
      <trkpt lat="45.61902" lon="4.60929">
        <ele>695</ele>
        <time>2009-09-29T08:37:32Z</time>
      </trkpt>
      <trkpt lat="45.61892" lon="4.60937">
        <ele>693</ele>
        <time>2009-09-29T08:37:40Z</time>
      </trkpt>
      <trkpt lat="45.61883" lon="4.60944">
        <ele>692</ele>
        <time>2009-09-29T08:37:49Z</time>
      </trkpt>
      <trkpt lat="45.61874" lon="4.6095">
        <ele>691</ele>
        <time>2009-09-29T08:37:59Z</time>
      </trkpt>
      <trkpt lat="45.61864" lon="4.60952">
        <ele>691</ele>
        <time>2009-09-29T08:38:05Z</time>
      </trkpt>
      <trkpt lat="45.61854" lon="4.60954">
        <ele>691</ele>
        <time>2009-09-29T08:38:11Z</time>
      </trkpt>
      <trkpt lat="45.61845" lon="4.60961">
        <ele>690</ele>
        <time>2009-09-29T08:38:18Z</time>
      </trkpt>
      <trkpt lat="45.61835" lon="4.60962">
        <ele>690</ele>
        <time>2009-09-29T08:38:25Z</time>
      </trkpt>
      <trkpt lat="45.61825" lon="4.60959">
        <ele>695</ele>
        <time>2009-09-29T08:38:35Z</time>
      </trkpt>
      <trkpt lat="45.61815" lon="4.60961">
        <ele>694</ele>
        <time>2009-09-29T08:38:41Z</time>
      </trkpt>
      <trkpt lat="45.61806" lon="4.6096">
        <ele>695</ele>
        <time>2009-09-29T08:38:51Z</time>
      </trkpt>
      <trkpt lat="45.61796" lon="4.6096">
        <ele>695</ele>
        <time>2009-09-29T08:38:58Z</time>
      </trkpt>
      <trkpt lat="45.61786" lon="4.60962">
        <ele>695</ele>
        <time>2009-09-29T08:39:05Z</time>
      </trkpt>
      <trkpt lat="45.61777" lon="4.60965">
        <ele>695</ele>
        <time>2009-09-29T08:39:10Z</time>
      </trkpt>
      <trkpt lat="45.61767" lon="4.60964">
        <ele>695</ele>
        <time>2009-09-29T08:39:19Z</time>
      </trkpt>
      <trkpt lat="45.61758" lon="4.60957">
        <ele>696</ele>
        <time>2009-09-29T08:39:31Z</time>
      </trkpt>
      <trkpt lat="45.61748" lon="4.60962">
        <ele>699</ele>
        <time>2009-09-29T08:39:40Z</time>
      </trkpt>
      <trkpt lat="45.61738" lon="4.60966">
        <ele>699</ele>
        <time>2009-09-29T08:39:48Z</time>
      </trkpt>
      <trkpt lat="45.61731" lon="4.60974">
        <ele>698</ele>
        <time>2009-09-29T08:39:56Z</time>
      </trkpt>
      <trkpt lat="45.61723" lon="4.60983">
        <ele>697</ele>
        <time>2009-09-29T08:40:03Z</time>
      </trkpt>
      <trkpt lat="45.61716" lon="4.60992">
        <ele>697</ele>
        <time>2009-09-29T08:40:08Z</time>
      </trkpt>
      <trkpt lat="45.61707" lon="4.60997">
        <ele>698</ele>
        <time>2009-09-29T08:40:16Z</time>
      </trkpt>
      <trkpt lat="45.61699" lon="4.61006">
        <ele>683</ele>
        <time>2009-09-29T08:40:22Z</time>
      </trkpt>
      <trkpt lat="45.61691" lon="4.61015">
        <ele>684</ele>
        <time>2009-09-29T08:40:32Z</time>
      </trkpt>
      <trkpt lat="45.61683" lon="4.61024">
        <ele>684</ele>
        <time>2009-09-29T08:40:41Z</time>
      </trkpt>
      <trkpt lat="45.61676" lon="4.61033">
        <ele>682</ele>
        <time>2009-09-29T08:40:50Z</time>
      </trkpt>
      <trkpt lat="45.61668" lon="4.6104">
        <ele>681</ele>
        <time>2009-09-29T08:40:57Z</time>
      </trkpt>
      <trkpt lat="45.6166" lon="4.61049">
        <ele>689</ele>
        <time>2009-09-29T08:41:04Z</time>
      </trkpt>
      <trkpt lat="45.61652" lon="4.61059">
        <ele>687</ele>
        <time>2009-09-29T08:41:11Z</time>
      </trkpt>
      <trkpt lat="45.61646" lon="4.6107">
        <ele>687</ele>
        <time>2009-09-29T08:41:20Z</time>
      </trkpt>
      <trkpt lat="45.61642" lon="4.61083">
        <ele>686</ele>
        <time>2009-09-29T08:41:31Z</time>
      </trkpt>
      <trkpt lat="45.61641" lon="4.61096">
        <ele>678</ele>
        <time>2009-09-29T08:41:39Z</time>
      </trkpt>
      <trkpt lat="45.61636" lon="4.6111">
        <ele>678</ele>
        <time>2009-09-29T08:41:49Z</time>
      </trkpt>
      <trkpt lat="45.61629" lon="4.61121">
        <ele>678</ele>
        <time>2009-09-29T08:41:56Z</time>
      </trkpt>
      <trkpt lat="45.61629" lon="4.61134">
        <ele>677</ele>
        <time>2009-09-29T08:42:03Z</time>
      </trkpt>
      <trkpt lat="45.61624" lon="4.61151">
        <ele>677</ele>
        <time>2009-09-29T08:42:12Z</time>
      </trkpt>
      <trkpt lat="45.61617" lon="4.61161">
        <ele>678</ele>
        <time>2009-09-29T08:42:19Z</time>
      </trkpt>
      <trkpt lat="45.61609" lon="4.61167">
        <ele>673</ele>
        <time>2009-09-29T08:42:33Z</time>
      </trkpt>
      <trkpt lat="45.61617" lon="4.61183">
        <ele>669</ele>
        <time>2009-09-29T08:42:58Z</time>
      </trkpt>
      <trkpt lat="45.6161" lon="4.61172">
        <ele>672</ele>
        <time>2009-09-29T08:43:10Z</time>
      </trkpt>
      <trkpt lat="45.61612" lon="4.61185">
        <ele>670</ele>
        <time>2009-09-29T08:43:26Z</time>
      </trkpt>
      <trkpt lat="45.61607" lon="4.61197">
        <ele>670</ele>
        <time>2009-09-29T08:43:36Z</time>
      </trkpt>
      <trkpt lat="45.61602" lon="4.61209">
        <ele>669</ele>
        <time>2009-09-29T08:43:46Z</time>
      </trkpt>
      <trkpt lat="45.61597" lon="4.61223">
        <ele>669</ele>
        <time>2009-09-29T08:43:56Z</time>
      </trkpt>
      <trkpt lat="45.61592" lon="4.61235">
        <ele>670</ele>
        <time>2009-09-29T08:44:05Z</time>
      </trkpt>
      <trkpt lat="45.61588" lon="4.61248">
        <ele>672</ele>
        <time>2009-09-29T08:44:12Z</time>
      </trkpt>
      <trkpt lat="45.61581" lon="4.61259">
        <ele>674</ele>
        <time>2009-09-29T08:44:20Z</time>
      </trkpt>
      <trkpt lat="45.61577" lon="4.61271">
        <ele>673</ele>
        <time>2009-09-29T08:44:27Z</time>
      </trkpt>
      <trkpt lat="45.61571" lon="4.61281">
        <ele>672</ele>
        <time>2009-09-29T08:44:36Z</time>
      </trkpt>
      <trkpt lat="45.61568" lon="4.61296">
        <ele>671</ele>
        <time>2009-09-29T08:44:45Z</time>
      </trkpt>
      <trkpt lat="45.61566" lon="4.6131">
        <ele>669</ele>
        <time>2009-09-29T08:44:54Z</time>
      </trkpt>
      <trkpt lat="45.6156" lon="4.6132">
        <ele>669</ele>
        <time>2009-09-29T08:45:01Z</time>
      </trkpt>
      <trkpt lat="45.61557" lon="4.61333">
        <ele>661</ele>
        <time>2009-09-29T08:45:10Z</time>
      </trkpt>
      <trkpt lat="45.61551" lon="4.61346">
        <ele>661</ele>
        <time>2009-09-29T08:45:18Z</time>
      </trkpt>
      <trkpt lat="45.61548" lon="4.6136">
        <ele>660</ele>
        <time>2009-09-29T08:45:26Z</time>
      </trkpt>
      <trkpt lat="45.61542" lon="4.61369">
        <ele>659</ele>
        <time>2009-09-29T08:45:31Z</time>
      </trkpt>
      <trkpt lat="45.61537" lon="4.61381">
        <ele>659</ele>
        <time>2009-09-29T08:45:42Z</time>
      </trkpt>
      <trkpt lat="45.61535" lon="4.61395">
        <ele>658</ele>
        <time>2009-09-29T08:45:50Z</time>
      </trkpt>
      <trkpt lat="45.6153" lon="4.61406">
        <ele>657</ele>
        <time>2009-09-29T08:45:59Z</time>
      </trkpt>
      <trkpt lat="45.61523" lon="4.61414">
        <ele>657</ele>
        <time>2009-09-29T08:46:07Z</time>
      </trkpt>
      <trkpt lat="45.61515" lon="4.61421">
        <ele>651</ele>
        <time>2009-09-29T08:46:11Z</time>
      </trkpt>
      <trkpt lat="45.61506" lon="4.61425">
        <ele>652</ele>
        <time>2009-09-29T08:46:17Z</time>
      </trkpt>
      <trkpt lat="45.61497" lon="4.61429">
        <ele>651</ele>
        <time>2009-09-29T08:46:24Z</time>
      </trkpt>
      <trkpt lat="45.61488" lon="4.61435">
        <ele>649</ele>
        <time>2009-09-29T08:46:32Z</time>
      </trkpt>
      <trkpt lat="45.61479" lon="4.61438">
        <ele>647</ele>
        <time>2009-09-29T08:46:42Z</time>
      </trkpt>
      <trkpt lat="45.61473" lon="4.61449">
        <ele>645</ele>
        <time>2009-09-29T08:46:53Z</time>
      </trkpt>
      <trkpt lat="45.61465" lon="4.61459">
        <ele>643</ele>
        <time>2009-09-29T08:47:03Z</time>
      </trkpt>
      <trkpt lat="45.61458" lon="4.61468">
        <ele>642</ele>
        <time>2009-09-29T08:47:14Z</time>
      </trkpt>
      <trkpt lat="45.6145" lon="4.61474">
        <ele>642</ele>
        <time>2009-09-29T08:47:23Z</time>
      </trkpt>
      <trkpt lat="45.61441" lon="4.61482">
        <ele>640</ele>
        <time>2009-09-29T08:47:33Z</time>
      </trkpt>
      <trkpt lat="45.61433" lon="4.61474">
        <ele>640</ele>
        <time>2009-09-29T08:47:48Z</time>
      </trkpt>
      <trkpt lat="45.61426" lon="4.61463">
        <ele>641</ele>
        <time>2009-09-29T08:48:00Z</time>
      </trkpt>
      <trkpt lat="45.61419" lon="4.61451">
        <ele>641</ele>
        <time>2009-09-29T08:48:07Z</time>
      </trkpt>
      <trkpt lat="45.61413" lon="4.61441">
        <ele>631</ele>
        <time>2009-09-29T08:48:17Z</time>
      </trkpt>
      <trkpt lat="45.61406" lon="4.61431">
        <ele>632</ele>
        <time>2009-09-29T08:48:28Z</time>
      </trkpt>
      <trkpt lat="45.61399" lon="4.61423">
        <ele>632</ele>
        <time>2009-09-29T08:48:37Z</time>
      </trkpt>
      <trkpt lat="45.61392" lon="4.61413">
        <ele>632</ele>
        <time>2009-09-29T08:48:51Z</time>
      </trkpt>
      <trkpt lat="45.61384" lon="4.61404">
        <ele>630</ele>
        <time>2009-09-29T08:49:01Z</time>
      </trkpt>
      <trkpt lat="45.61378" lon="4.61395">
        <ele>629</ele>
        <time>2009-09-29T08:49:10Z</time>
      </trkpt>
      <trkpt lat="45.6137" lon="4.61385">
        <ele>628</ele>
        <time>2009-09-29T08:49:20Z</time>
      </trkpt>
      <trkpt lat="45.61363" lon="4.61376">
        <ele>627</ele>
        <time>2009-09-29T08:49:28Z</time>
      </trkpt>
      <trkpt lat="45.61357" lon="4.61365">
        <ele>626</ele>
        <time>2009-09-29T08:49:38Z</time>
      </trkpt>
      <trkpt lat="45.61351" lon="4.61355">
        <ele>624</ele>
        <time>2009-09-29T08:49:48Z</time>
      </trkpt>
      <trkpt lat="45.61343" lon="4.61347">
        <ele>622</ele>
        <time>2009-09-29T08:49:59Z</time>
      </trkpt>
      <trkpt lat="45.61334" lon="4.61339">
        <ele>618</ele>
        <time>2009-09-29T08:50:10Z</time>
      </trkpt>
      <trkpt lat="45.61326" lon="4.61331">
        <ele>612</ele>
        <time>2009-09-29T08:50:19Z</time>
      </trkpt>
      <trkpt lat="45.61318" lon="4.61323">
        <ele>610</ele>
        <time>2009-09-29T08:50:32Z</time>
      </trkpt>
      <trkpt lat="45.6131" lon="4.61315">
        <ele>608</ele>
        <time>2009-09-29T08:50:44Z</time>
      </trkpt>
      <trkpt lat="45.61303" lon="4.61306">
        <ele>607</ele>
        <time>2009-09-29T08:50:55Z</time>
      </trkpt>
      <trkpt lat="45.61295" lon="4.61297">
        <ele>606</ele>
        <time>2009-09-29T08:51:05Z</time>
      </trkpt>
      <trkpt lat="45.61286" lon="4.61289">
        <ele>604</ele>
        <time>2009-09-29T08:51:13Z</time>
      </trkpt>
      <trkpt lat="45.61281" lon="4.61277">
        <ele>604</ele>
        <time>2009-09-29T08:51:21Z</time>
      </trkpt>
      <trkpt lat="45.61275" lon="4.61266">
        <ele>602</ele>
        <time>2009-09-29T08:51:30Z</time>
      </trkpt>
      <trkpt lat="45.61267" lon="4.61255">
        <ele>600</ele>
        <time>2009-09-29T08:51:39Z</time>
      </trkpt>
      <trkpt lat="45.61259" lon="4.61246">
        <ele>598</ele>
        <time>2009-09-29T08:51:49Z</time>
      </trkpt>
      <trkpt lat="45.6125" lon="4.61242">
        <ele>593</ele>
        <time>2009-09-29T08:51:56Z</time>
      </trkpt>
      <trkpt lat="45.61241" lon="4.61237">
        <ele>593</ele>
        <time>2009-09-29T08:52:04Z</time>
      </trkpt>
      <trkpt lat="45.61233" lon="4.61229">
        <ele>593</ele>
        <time>2009-09-29T08:52:11Z</time>
      </trkpt>
      <trkpt lat="45.61224" lon="4.61222">
        <ele>592</ele>
        <time>2009-09-29T08:52:18Z</time>
      </trkpt>
      <trkpt lat="45.61215" lon="4.61218">
        <ele>592</ele>
        <time>2009-09-29T08:52:24Z</time>
      </trkpt>
      <trkpt lat="45.61206" lon="4.61213">
        <ele>592</ele>
        <time>2009-09-29T08:52:33Z</time>
      </trkpt>
      <trkpt lat="45.61197" lon="4.61209">
        <ele>592</ele>
        <time>2009-09-29T08:52:41Z</time>
      </trkpt>
      <trkpt lat="45.61187" lon="4.61211">
        <ele>591</ele>
        <time>2009-09-29T08:52:47Z</time>
      </trkpt>
      <trkpt lat="45.61177" lon="4.61215">
        <ele>590</ele>
        <time>2009-09-29T08:52:54Z</time>
      </trkpt>
      <trkpt lat="45.61168" lon="4.61216">
        <ele>590</ele>
        <time>2009-09-29T08:53:03Z</time>
      </trkpt>
      <trkpt lat="45.61158" lon="4.61213">
        <ele>589</ele>
        <time>2009-09-29T08:53:10Z</time>
      </trkpt>
      <trkpt lat="45.61149" lon="4.61211">
        <ele>590</ele>
        <time>2009-09-29T08:53:18Z</time>
      </trkpt>
      <trkpt lat="45.61139" lon="4.61215">
        <ele>590</ele>
        <time>2009-09-29T08:53:25Z</time>
      </trkpt>
      <trkpt lat="45.61131" lon="4.6122">
        <ele>590</ele>
        <time>2009-09-29T08:53:34Z</time>
      </trkpt>
      <trkpt lat="45.61121" lon="4.6122">
        <ele>590</ele>
        <time>2009-09-29T08:53:44Z</time>
      </trkpt>
      <trkpt lat="45.61112" lon="4.61225">
        <ele>590</ele>
        <time>2009-09-29T08:53:55Z</time>
      </trkpt>
      <trkpt lat="45.61105" lon="4.61235">
        <ele>589</ele>
        <time>2009-09-29T08:54:04Z</time>
      </trkpt>
      <trkpt lat="45.61099" lon="4.61246">
        <ele>589</ele>
        <time>2009-09-29T08:54:14Z</time>
      </trkpt>
      <trkpt lat="45.6109" lon="4.61252">
        <ele>585</ele>
        <time>2009-09-29T08:54:24Z</time>
      </trkpt>
      <trkpt lat="45.6108" lon="4.61254">
        <ele>586</ele>
        <time>2009-09-29T08:54:28Z</time>
      </trkpt>
      <trkpt lat="45.61071" lon="4.61259">
        <ele>585</ele>
        <time>2009-09-29T08:54:33Z</time>
      </trkpt>
      <trkpt lat="45.61063" lon="4.61263">
        <ele>585</ele>
        <time>2009-09-29T08:54:39Z</time>
      </trkpt>
      <trkpt lat="45.61053" lon="4.61269">
        <ele>585</ele>
        <time>2009-09-29T08:54:45Z</time>
      </trkpt>
      <trkpt lat="45.61045" lon="4.61276">
        <ele>585</ele>
        <time>2009-09-29T08:54:52Z</time>
      </trkpt>
      <trkpt lat="45.61037" lon="4.61285">
        <ele>584</ele>
        <time>2009-09-29T08:55:00Z</time>
      </trkpt>
      <trkpt lat="45.6103" lon="4.61295">
        <ele>584</ele>
        <time>2009-09-29T08:55:08Z</time>
      </trkpt>
      <trkpt lat="45.61025" lon="4.61307">
        <ele>583</ele>
        <time>2009-09-29T08:55:17Z</time>
      </trkpt>
      <trkpt lat="45.61017" lon="4.61318">
        <ele>582</ele>
        <time>2009-09-29T08:55:24Z</time>
      </trkpt>
      <trkpt lat="45.61012" lon="4.61329">
        <ele>582</ele>
        <time>2009-09-29T08:55:37Z</time>
      </trkpt>
      <trkpt lat="45.61004" lon="4.61338">
        <ele>579</ele>
        <time>2009-09-29T08:55:44Z</time>
      </trkpt>
      <trkpt lat="45.60998" lon="4.61348">
        <ele>577</ele>
        <time>2009-09-29T08:55:52Z</time>
      </trkpt>
      <trkpt lat="45.61003" lon="4.61337">
        <ele>579</ele>
        <time>2009-09-29T08:57:13Z</time>
      </trkpt>
      <trkpt lat="45.6101" lon="4.61327">
        <ele>582</ele>
        <time>2009-09-29T08:57:22Z</time>
      </trkpt>
      <trkpt lat="45.61017" lon="4.61317">
        <ele>582</ele>
        <time>2009-09-29T08:57:29Z</time>
      </trkpt>
      <trkpt lat="45.61023" lon="4.61306">
        <ele>583</ele>
        <time>2009-09-29T08:57:38Z</time>
      </trkpt>
      <trkpt lat="45.61029" lon="4.61295">
        <ele>584</ele>
        <time>2009-09-29T08:57:45Z</time>
      </trkpt>
      <trkpt lat="45.61037" lon="4.61285">
        <ele>584</ele>
        <time>2009-09-29T08:57:53Z</time>
      </trkpt>
      <trkpt lat="45.61044" lon="4.61275">
        <ele>585</ele>
        <time>2009-09-29T08:58:01Z</time>
      </trkpt>
      <trkpt lat="45.61051" lon="4.61266">
        <ele>585</ele>
        <time>2009-09-29T08:58:10Z</time>
      </trkpt>
      <trkpt lat="45.61059" lon="4.61259">
        <ele>585</ele>
        <time>2009-09-29T08:58:19Z</time>
      </trkpt>
      <trkpt lat="45.61067" lon="4.6125">
        <ele>592</ele>
        <time>2009-09-29T08:58:28Z</time>
      </trkpt>
      <trkpt lat="45.61059" lon="4.61244">
        <ele>593</ele>
        <time>2009-09-29T08:58:39Z</time>
      </trkpt>
      <trkpt lat="45.61049" lon="4.61242">
        <ele>595</ele>
        <time>2009-09-29T08:58:49Z</time>
      </trkpt>
      <trkpt lat="45.61039" lon="4.61241">
        <ele>595</ele>
        <time>2009-09-29T08:58:57Z</time>
      </trkpt>
      <trkpt lat="45.61029" lon="4.61238">
        <ele>596</ele>
        <time>2009-09-29T08:59:08Z</time>
      </trkpt>
      <trkpt lat="45.6102" lon="4.61236">
        <ele>596</ele>
        <time>2009-09-29T09:01:24Z</time>
      </trkpt>
      <trkpt lat="45.6101" lon="4.61239">
        <ele>596</ele>
        <time>2009-09-29T09:01:34Z</time>
      </trkpt>
      <trkpt lat="45.61001" lon="4.61242">
        <ele>595</ele>
        <time>2009-09-29T09:01:42Z</time>
      </trkpt>
      <trkpt lat="45.60991" lon="4.61245">
        <ele>596</ele>
        <time>2009-09-29T09:01:50Z</time>
      </trkpt>
      <trkpt lat="45.60981" lon="4.61247">
        <ele>597</ele>
        <time>2009-09-29T09:01:59Z</time>
      </trkpt>
      <trkpt lat="45.60971" lon="4.61245">
        <ele>597</ele>
        <time>2009-09-29T09:02:10Z</time>
      </trkpt>
      <trkpt lat="45.60962" lon="4.61239">
        <ele>598</ele>
        <time>2009-09-29T09:02:17Z</time>
      </trkpt>
      <trkpt lat="45.60952" lon="4.61236">
        <ele>598</ele>
        <time>2009-09-29T09:02:25Z</time>
      </trkpt>
      <trkpt lat="45.60946" lon="4.61225">
        <ele>598</ele>
        <time>2009-09-29T09:02:35Z</time>
      </trkpt>
      <trkpt lat="45.60936" lon="4.61223">
        <ele>598</ele>
        <time>2009-09-29T09:02:41Z</time>
      </trkpt>
      <trkpt lat="45.60926" lon="4.6122">
        <ele>598</ele>
        <time>2009-09-29T09:02:48Z</time>
      </trkpt>
      <trkpt lat="45.60918" lon="4.61215">
        <ele>599</ele>
        <time>2009-09-29T09:02:54Z</time>
      </trkpt>
      <trkpt lat="45.60908" lon="4.61209">
        <ele>593</ele>
        <time>2009-09-29T09:03:01Z</time>
      </trkpt>
      <trkpt lat="45.60901" lon="4.61201">
        <ele>593</ele>
        <time>2009-09-29T09:03:09Z</time>
      </trkpt>
      <trkpt lat="45.60893" lon="4.6119">
        <ele>594</ele>
        <time>2009-09-29T09:03:17Z</time>
      </trkpt>
      <trkpt lat="45.60887" lon="4.61179">
        <ele>594</ele>
        <time>2009-09-29T09:03:25Z</time>
      </trkpt>
      <trkpt lat="45.60883" lon="4.61166">
        <ele>599</ele>
        <time>2009-09-29T09:03:32Z</time>
      </trkpt>
      <trkpt lat="45.60878" lon="4.61155">
        <ele>599</ele>
        <time>2009-09-29T09:03:40Z</time>
      </trkpt>
      <trkpt lat="45.60872" lon="4.61142">
        <ele>598</ele>
        <time>2009-09-29T09:03:48Z</time>
      </trkpt>
      <trkpt lat="45.60867" lon="4.6113">
        <ele>598</ele>
        <time>2009-09-29T09:03:56Z</time>
      </trkpt>
      <trkpt lat="45.60863" lon="4.61118">
        <ele>598</ele>
        <time>2009-09-29T09:04:03Z</time>
      </trkpt>
      <trkpt lat="45.60858" lon="4.61106">
        <ele>598</ele>
        <time>2009-09-29T09:04:11Z</time>
      </trkpt>
      <trkpt lat="45.60853" lon="4.61094">
        <ele>597</ele>
        <time>2009-09-29T09:04:19Z</time>
      </trkpt>
      <trkpt lat="45.60849" lon="4.61081">
        <ele>599</ele>
        <time>2009-09-29T09:04:26Z</time>
      </trkpt>
      <trkpt lat="45.60844" lon="4.61068">
        <ele>599</ele>
        <time>2009-09-29T09:04:36Z</time>
      </trkpt>
      <trkpt lat="45.60841" lon="4.61055">
        <ele>601</ele>
        <time>2009-09-29T09:04:44Z</time>
      </trkpt>
      <trkpt lat="45.60836" lon="4.61042">
        <ele>601</ele>
        <time>2009-09-29T09:04:50Z</time>
      </trkpt>
      <trkpt lat="45.60832" lon="4.61029">
        <ele>586</ele>
        <time>2009-09-29T09:04:56Z</time>
      </trkpt>
      <trkpt lat="45.60831" lon="4.61015">
        <ele>589</ele>
        <time>2009-09-29T09:05:06Z</time>
      </trkpt>
      <trkpt lat="45.60821" lon="4.61017">
        <ele>587</ele>
        <time>2009-09-29T09:08:27Z</time>
      </trkpt>
      <trkpt lat="45.60816" lon="4.61029">
        <ele>585</ele>
        <time>2009-09-29T09:08:37Z</time>
      </trkpt>
      <trkpt lat="45.60812" lon="4.61041">
        <ele>583</ele>
        <time>2009-09-29T09:08:47Z</time>
      </trkpt>
      <trkpt lat="45.60808" lon="4.61054">
        <ele>583</ele>
        <time>2009-09-29T09:08:57Z</time>
      </trkpt>
      <trkpt lat="45.60814" lon="4.61042">
        <ele>583</ele>
        <time>2009-09-29T09:09:21Z</time>
      </trkpt>
      <trkpt lat="45.60819" lon="4.6103">
        <ele>585</ele>
        <time>2009-09-29T09:09:31Z</time>
      </trkpt>
      <trkpt lat="45.6082" lon="4.61016">
        <ele>587</ele>
        <time>2009-09-29T09:09:43Z</time>
      </trkpt>
      <trkpt lat="45.60824" lon="4.61004">
        <ele>591</ele>
        <time>2009-09-29T09:09:55Z</time>
      </trkpt>
      <trkpt lat="45.60824" lon="4.6099">
        <ele>590</ele>
        <time>2009-09-29T09:10:19Z</time>
      </trkpt>
      <trkpt lat="45.60817" lon="4.6098">
        <ele>587</ele>
        <time>2009-09-29T09:10:59Z</time>
      </trkpt>
      <trkpt lat="45.60813" lon="4.60969">
        <ele>585</ele>
        <time>2009-09-29T09:11:22Z</time>
      </trkpt>
      <trkpt lat="45.60807" lon="4.60957">
        <ele>584</ele>
        <time>2009-09-29T09:11:43Z</time>
      </trkpt>
      <trkpt lat="45.608" lon="4.60947">
        <ele>583</ele>
        <time>2009-09-29T09:11:59Z</time>
      </trkpt>
      <trkpt lat="45.60794" lon="4.60936">
        <ele>581</ele>
        <time>2009-09-29T09:12:12Z</time>
      </trkpt>
      <trkpt lat="45.60788" lon="4.60926">
        <ele>580</ele>
        <time>2009-09-29T09:12:24Z</time>
      </trkpt>
      <trkpt lat="45.60781" lon="4.60917">
        <ele>578</ele>
        <time>2009-09-29T09:12:36Z</time>
      </trkpt>
      <trkpt lat="45.60777" lon="4.60905">
        <ele>577</ele>
        <time>2009-09-29T09:12:45Z</time>
      </trkpt>
      <trkpt lat="45.60769" lon="4.60894">
        <ele>576</ele>
        <time>2009-09-29T09:14:29Z</time>
      </trkpt>
      <trkpt lat="45.60764" lon="4.60883">
        <ele>576</ele>
        <time>2009-09-29T09:14:38Z</time>
      </trkpt>
      <trkpt lat="45.60759" lon="4.60871">
        <ele>576</ele>
        <time>2009-09-29T09:14:46Z</time>
      </trkpt>
      <trkpt lat="45.60756" lon="4.60857">
        <ele>575</ele>
        <time>2009-09-29T09:14:54Z</time>
      </trkpt>
      <trkpt lat="45.60753" lon="4.60844">
        <ele>572</ele>
        <time>2009-09-29T09:15:01Z</time>
      </trkpt>
      <trkpt lat="45.6075" lon="4.6083">
        <ele>570</ele>
        <time>2009-09-29T09:15:08Z</time>
      </trkpt>
      <trkpt lat="45.60748" lon="4.60816">
        <ele>566</ele>
        <time>2009-09-29T09:15:15Z</time>
      </trkpt>
      <trkpt lat="45.60743" lon="4.60803">
        <ele>565</ele>
        <time>2009-09-29T09:15:21Z</time>
      </trkpt>
      <trkpt lat="45.60737" lon="4.6079">
        <ele>565</ele>
        <time>2009-09-29T09:15:28Z</time>
      </trkpt>
      <trkpt lat="45.60735" lon="4.60776">
        <ele>565</ele>
        <time>2009-09-29T09:15:37Z</time>
      </trkpt>
      <trkpt lat="45.60733" lon="4.60762">
        <ele>566</ele>
        <time>2009-09-29T09:15:44Z</time>
      </trkpt>
      <trkpt lat="45.60731" lon="4.60749">
        <ele>570</ele>
        <time>2009-09-29T09:15:51Z</time>
      </trkpt>
      <trkpt lat="45.60727" lon="4.60736">
        <ele>571</ele>
        <time>2009-09-29T09:15:58Z</time>
      </trkpt>
      <trkpt lat="45.6072" lon="4.60727">
        <ele>571</ele>
        <time>2009-09-29T09:16:05Z</time>
      </trkpt>
      <trkpt lat="45.60711" lon="4.60723">
        <ele>572</ele>
        <time>2009-09-29T09:16:12Z</time>
      </trkpt>
      <trkpt lat="45.60701" lon="4.60723">
        <ele>571</ele>
        <time>2009-09-29T09:16:19Z</time>
      </trkpt>
      <trkpt lat="45.60692" lon="4.60726">
        <ele>571</ele>
        <time>2009-09-29T09:16:26Z</time>
      </trkpt>
      <trkpt lat="45.60683" lon="4.60731">
        <ele>569</ele>
        <time>2009-09-29T09:16:33Z</time>
      </trkpt>
      <trkpt lat="45.60674" lon="4.60735">
        <ele>568</ele>
        <time>2009-09-29T09:16:43Z</time>
      </trkpt>
      <trkpt lat="45.60665" lon="4.60741">
        <ele>565</ele>
        <time>2009-09-29T09:16:55Z</time>
      </trkpt>
      <trkpt lat="45.60658" lon="4.6075">
        <ele>565</ele>
        <time>2009-09-29T09:17:05Z</time>
      </trkpt>
      <trkpt lat="45.6065" lon="4.60757">
        <ele>561</ele>
        <time>2009-09-29T09:17:28Z</time>
      </trkpt>
      <trkpt lat="45.60641" lon="4.60763">
        <ele>560</ele>
        <time>2009-09-29T09:17:37Z</time>
      </trkpt>
      <trkpt lat="45.60631" lon="4.60767">
        <ele>559</ele>
        <time>2009-09-29T09:17:43Z</time>
      </trkpt>
      <trkpt lat="45.60622" lon="4.60769">
        <ele>559</ele>
        <time>2009-09-29T09:17:50Z</time>
      </trkpt>
      <trkpt lat="45.60612" lon="4.60768">
        <ele>559</ele>
        <time>2009-09-29T09:17:57Z</time>
      </trkpt>
      <trkpt lat="45.60602" lon="4.60767">
        <ele>559</ele>
        <time>2009-09-29T09:18:04Z</time>
      </trkpt>
      <trkpt lat="45.60593" lon="4.60765">
        <ele>560</ele>
        <time>2009-09-29T09:18:11Z</time>
      </trkpt>
      <trkpt lat="45.60583" lon="4.60762">
        <ele>558</ele>
        <time>2009-09-29T09:18:18Z</time>
      </trkpt>
      <trkpt lat="45.60575" lon="4.60759">
        <ele>558</ele>
        <time>2009-09-29T09:18:26Z</time>
      </trkpt>
      <trkpt lat="45.60566" lon="4.60751">
        <ele>556</ele>
        <time>2009-09-29T09:18:33Z</time>
      </trkpt>
      <trkpt lat="45.60558" lon="4.60743">
        <ele>559</ele>
        <time>2009-09-29T09:18:40Z</time>
      </trkpt>
      <trkpt lat="45.60551" lon="4.60734">
        <ele>558</ele>
        <time>2009-09-29T09:18:47Z</time>
      </trkpt>
      <trkpt lat="45.60544" lon="4.60724">
        <ele>558</ele>
        <time>2009-09-29T09:18:54Z</time>
      </trkpt>
      <trkpt lat="45.60539" lon="4.60714">
        <ele>558</ele>
        <time>2009-09-29T09:19:02Z</time>
      </trkpt>
      <trkpt lat="45.60532" lon="4.60703">
        <ele>557</ele>
        <time>2009-09-29T09:19:10Z</time>
      </trkpt>
      <trkpt lat="45.60526" lon="4.60693">
        <ele>557</ele>
        <time>2009-09-29T09:19:17Z</time>
      </trkpt>
      <trkpt lat="45.60518" lon="4.60683">
        <ele>557</ele>
        <time>2009-09-29T09:19:24Z</time>
      </trkpt>
      <trkpt lat="45.60512" lon="4.60672">
        <ele>556</ele>
        <time>2009-09-29T09:19:31Z</time>
      </trkpt>
      <trkpt lat="45.60506" lon="4.60661">
        <ele>557</ele>
        <time>2009-09-29T09:19:40Z</time>
      </trkpt>
      <trkpt lat="45.60499" lon="4.60651">
        <ele>552</ele>
        <time>2009-09-29T09:19:46Z</time>
      </trkpt>
      <trkpt lat="45.60493" lon="4.6064">
        <ele>551</ele>
        <time>2009-09-29T09:19:54Z</time>
      </trkpt>
      <trkpt lat="45.60484" lon="4.60631">
        <ele>551</ele>
        <time>2009-09-29T09:20:01Z</time>
      </trkpt>
      <trkpt lat="45.60477" lon="4.6062">
        <ele>550</ele>
        <time>2009-09-29T09:20:08Z</time>
      </trkpt>
      <trkpt lat="45.6047" lon="4.60611">
        <ele>550</ele>
        <time>2009-09-29T09:20:14Z</time>
      </trkpt>
      <trkpt lat="45.60462" lon="4.60601">
        <ele>550</ele>
        <time>2009-09-29T09:20:21Z</time>
      </trkpt>
      <trkpt lat="45.60455" lon="4.60591">
        <ele>549</ele>
        <time>2009-09-29T09:20:28Z</time>
      </trkpt>
      <trkpt lat="45.60448" lon="4.60581">
        <ele>552</ele>
        <time>2009-09-29T09:20:35Z</time>
      </trkpt>
      <trkpt lat="45.60441" lon="4.60571">
        <ele>551</ele>
        <time>2009-09-29T09:20:42Z</time>
      </trkpt>
      <trkpt lat="45.60435" lon="4.6056">
        <ele>551</ele>
        <time>2009-09-29T09:20:49Z</time>
      </trkpt>
      <trkpt lat="45.60428" lon="4.6055">
        <ele>552</ele>
        <time>2009-09-29T09:20:56Z</time>
      </trkpt>
      <trkpt lat="45.60421" lon="4.6054">
        <ele>552</ele>
        <time>2009-09-29T09:21:03Z</time>
      </trkpt>
      <trkpt lat="45.60414" lon="4.60529">
        <ele>544</ele>
        <time>2009-09-29T09:21:12Z</time>
      </trkpt>
      <trkpt lat="45.60407" lon="4.60517">
        <ele>545</ele>
        <time>2009-09-29T09:21:21Z</time>
      </trkpt>
      <trkpt lat="45.604" lon="4.60508">
        <ele>545</ele>
        <time>2009-09-29T09:21:27Z</time>
      </trkpt>
      <trkpt lat="45.60393" lon="4.60497">
        <ele>547</ele>
        <time>2009-09-29T09:21:34Z</time>
      </trkpt>
      <trkpt lat="45.60385" lon="4.60486">
        <ele>547</ele>
        <time>2009-09-29T09:21:41Z</time>
      </trkpt>
      <trkpt lat="45.60378" lon="4.60476">
        <ele>546</ele>
        <time>2009-09-29T09:21:49Z</time>
      </trkpt>
      <trkpt lat="45.6037" lon="4.60467">
        <ele>545</ele>
        <time>2009-09-29T09:21:57Z</time>
      </trkpt>
      <trkpt lat="45.60363" lon="4.60458">
        <ele>545</ele>
        <time>2009-09-29T09:22:05Z</time>
      </trkpt>
      <trkpt lat="45.60356" lon="4.60447">
        <ele>545</ele>
        <time>2009-09-29T09:22:13Z</time>
      </trkpt>
      <trkpt lat="45.60349" lon="4.60437">
        <ele>544</ele>
        <time>2009-09-29T09:22:19Z</time>
      </trkpt>
      <trkpt lat="45.60342" lon="4.60427">
        <ele>543</ele>
        <time>2009-09-29T09:22:26Z</time>
      </trkpt>
      <trkpt lat="45.60335" lon="4.60416">
        <ele>542</ele>
        <time>2009-09-29T09:22:33Z</time>
      </trkpt>
      <trkpt lat="45.60327" lon="4.60406">
        <ele>540</ele>
        <time>2009-09-29T09:22:40Z</time>
      </trkpt>
      <trkpt lat="45.6032" lon="4.60396">
        <ele>540</ele>
        <time>2009-09-29T09:22:48Z</time>
      </trkpt>
      <trkpt lat="45.60314" lon="4.60385">
        <ele>540</ele>
        <time>2009-09-29T09:22:55Z</time>
      </trkpt>
      <trkpt lat="45.60308" lon="4.60374">
        <ele>540</ele>
        <time>2009-09-29T09:23:02Z</time>
      </trkpt>
      <trkpt lat="45.60302" lon="4.60361">
        <ele>540</ele>
        <time>2009-09-29T09:23:11Z</time>
      </trkpt>
      <trkpt lat="45.60297" lon="4.6035">
        <ele>540</ele>
        <time>2009-09-29T09:23:21Z</time>
      </trkpt>
      <trkpt lat="45.60293" lon="4.60337">
        <ele>540</ele>
        <time>2009-09-29T09:23:29Z</time>
      </trkpt>
      <trkpt lat="45.60289" lon="4.60324">
        <ele>544</ele>
        <time>2009-09-29T09:23:38Z</time>
      </trkpt>
      <trkpt lat="45.60285" lon="4.60311">
        <ele>544</ele>
        <time>2009-09-29T09:23:46Z</time>
      </trkpt>
      <trkpt lat="45.60278" lon="4.60299">
        <ele>544</ele>
        <time>2009-09-29T09:23:54Z</time>
      </trkpt>
      <trkpt lat="45.60269" lon="4.60291">
        <ele>544</ele>
        <time>2009-09-29T09:24:02Z</time>
      </trkpt>
      <trkpt lat="45.60259" lon="4.60292">
        <ele>543</ele>
        <time>2009-09-29T09:24:10Z</time>
      </trkpt>
      <trkpt lat="45.6025" lon="4.60298">
        <ele>542</ele>
        <time>2009-09-29T09:24:18Z</time>
      </trkpt>
      <trkpt lat="45.60242" lon="4.60307">
        <ele>541</ele>
        <time>2009-09-29T09:24:27Z</time>
      </trkpt>
      <trkpt lat="45.60235" lon="4.60316">
        <ele>541</ele>
        <time>2009-09-29T09:24:34Z</time>
      </trkpt>
      <trkpt lat="45.60228" lon="4.60325">
        <ele>541</ele>
        <time>2009-09-29T09:24:41Z</time>
      </trkpt>
      <trkpt lat="45.60221" lon="4.60334">
        <ele>539</ele>
        <time>2009-09-29T09:24:48Z</time>
      </trkpt>
      <trkpt lat="45.60214" lon="4.60343">
        <ele>539</ele>
        <time>2009-09-29T09:24:55Z</time>
      </trkpt>
      <trkpt lat="45.60206" lon="4.60352">
        <ele>539</ele>
        <time>2009-09-29T09:25:03Z</time>
      </trkpt>
      <trkpt lat="45.60199" lon="4.60362">
        <ele>540</ele>
        <time>2009-09-29T09:25:11Z</time>
      </trkpt>
      <trkpt lat="45.60192" lon="4.60371">
        <ele>540</ele>
        <time>2009-09-29T09:25:18Z</time>
      </trkpt>
      <trkpt lat="45.60186" lon="4.6038">
        <ele>540</ele>
        <time>2009-09-29T09:25:25Z</time>
      </trkpt>
      <trkpt lat="45.60179" lon="4.60391">
        <ele>540</ele>
        <time>2009-09-29T09:25:33Z</time>
      </trkpt>
      <trkpt lat="45.6017" lon="4.60401">
        <ele>540</ele>
        <time>2009-09-29T09:25:41Z</time>
      </trkpt>
      <trkpt lat="45.60162" lon="4.60408">
        <ele>542</ele>
        <time>2009-09-29T09:25:48Z</time>
      </trkpt>
      <trkpt lat="45.60153" lon="4.60413">
        <ele>543</ele>
        <time>2009-09-29T09:25:54Z</time>
      </trkpt>
      <trkpt lat="45.60143" lon="4.60416">
        <ele>543</ele>
        <time>2009-09-29T09:26:01Z</time>
      </trkpt>
      <trkpt lat="45.60133" lon="4.60416">
        <ele>544</ele>
        <time>2009-09-29T09:26:09Z</time>
      </trkpt>
      <trkpt lat="45.60123" lon="4.60415">
        <ele>544</ele>
        <time>2009-09-29T09:26:16Z</time>
      </trkpt>
      <trkpt lat="45.60113" lon="4.60413">
        <ele>544</ele>
        <time>2009-09-29T09:26:24Z</time>
      </trkpt>
      <trkpt lat="45.60103" lon="4.6041">
        <ele>545</ele>
        <time>2009-09-29T09:26:31Z</time>
      </trkpt>
      <trkpt lat="45.60093" lon="4.60407">
        <ele>545</ele>
        <time>2009-09-29T09:26:39Z</time>
      </trkpt>
      <trkpt lat="45.60084" lon="4.60404">
        <ele>545</ele>
        <time>2009-09-29T09:26:47Z</time>
      </trkpt>
      <trkpt lat="45.60074" lon="4.60402">
        <ele>544</ele>
        <time>2009-09-29T09:26:56Z</time>
      </trkpt>
      <trkpt lat="45.60064" lon="4.60399">
        <ele>544</ele>
        <time>2009-09-29T09:27:04Z</time>
      </trkpt>
      <trkpt lat="45.60054" lon="4.60397">
        <ele>544</ele>
        <time>2009-09-29T09:27:13Z</time>
      </trkpt>
      <trkpt lat="45.60063" lon="4.604">
        <ele>544</ele>
        <time>2009-09-29T09:28:24Z</time>
      </trkpt>
      <trkpt lat="45.60069" lon="4.6039">
        <ele>544</ele>
        <time>2009-09-29T09:28:46Z</time>
      </trkpt>
      <trkpt lat="45.60073" lon="4.60378">
        <ele>545</ele>
        <time>2009-09-29T09:29:24Z</time>
      </trkpt>
      <trkpt lat="45.60073" lon="4.60363">
        <ele>546</ele>
        <time>2009-09-29T09:29:34Z</time>
      </trkpt>
      <trkpt lat="45.60075" lon="4.6035">
        <ele>547</ele>
        <time>2009-09-29T09:29:43Z</time>
      </trkpt>
      <trkpt lat="45.60076" lon="4.60336">
        <ele>548</ele>
        <time>2009-09-29T09:30:07Z</time>
      </trkpt>
      <trkpt lat="45.60075" lon="4.60322">
        <ele>550</ele>
        <time>2009-09-29T09:30:17Z</time>
      </trkpt>
      <trkpt lat="45.60074" lon="4.60308">
        <ele>550</ele>
        <time>2009-09-29T09:30:25Z</time>
      </trkpt>
      <trkpt lat="45.60071" lon="4.60294">
        <ele>550</ele>
        <time>2009-09-29T09:30:33Z</time>
      </trkpt>
      <trkpt lat="45.60068" lon="4.60282">
        <ele>551</ele>
        <time>2009-09-29T09:30:42Z</time>
      </trkpt>
      <trkpt lat="45.60064" lon="4.6027">
        <ele>551</ele>
        <time>2009-09-29T09:30:50Z</time>
      </trkpt>
      <trkpt lat="45.60059" lon="4.60258">
        <ele>552</ele>
        <time>2009-09-29T09:30:58Z</time>
      </trkpt>
      <trkpt lat="45.60055" lon="4.60246">
        <ele>555</ele>
        <time>2009-09-29T09:31:06Z</time>
      </trkpt>
      <trkpt lat="45.60052" lon="4.60233">
        <ele>555</ele>
        <time>2009-09-29T09:31:14Z</time>
      </trkpt>
      <trkpt lat="45.60047" lon="4.60221">
        <ele>555</ele>
        <time>2009-09-29T09:31:22Z</time>
      </trkpt>
      <trkpt lat="45.60046" lon="4.60207">
        <ele>556</ele>
        <time>2009-09-29T09:31:31Z</time>
      </trkpt>
      <trkpt lat="45.60046" lon="4.60193">
        <ele>556</ele>
        <time>2009-09-29T09:31:38Z</time>
      </trkpt>
      <trkpt lat="45.60045" lon="4.60179">
        <ele>557</ele>
        <time>2009-09-29T09:31:45Z</time>
      </trkpt>
      <trkpt lat="45.60045" lon="4.60165">
        <ele>562</ele>
        <time>2009-09-29T09:31:53Z</time>
      </trkpt>
      <trkpt lat="45.60049" lon="4.60152">
        <ele>562</ele>
        <time>2009-09-29T09:32:13Z</time>
      </trkpt>
      <trkpt lat="45.60046" lon="4.60139">
        <ele>563</ele>
        <time>2009-09-29T09:32:22Z</time>
      </trkpt>
      <trkpt lat="45.60044" lon="4.60125">
        <ele>563</ele>
        <time>2009-09-29T09:32:31Z</time>
      </trkpt>
      <trkpt lat="45.60042" lon="4.60113">
        <ele>564</ele>
        <time>2009-09-29T09:32:40Z</time>
      </trkpt>
      <trkpt lat="45.60039" lon="4.601">
        <ele>564</ele>
        <time>2009-09-29T09:32:48Z</time>
      </trkpt>
      <trkpt lat="45.60035" lon="4.60087">
        <ele>564</ele>
        <time>2009-09-29T09:32:56Z</time>
      </trkpt>
      <trkpt lat="45.60034" lon="4.60073">
        <ele>567</ele>
        <time>2009-09-29T09:33:05Z</time>
      </trkpt>
      <trkpt lat="45.60034" lon="4.6006">
        <ele>567</ele>
        <time>2009-09-29T09:33:12Z</time>
      </trkpt>
      <trkpt lat="45.60035" lon="4.60045">
        <ele>568</ele>
        <time>2009-09-29T09:33:20Z</time>
      </trkpt>
      <trkpt lat="45.60036" lon="4.60032">
        <ele>568</ele>
        <time>2009-09-29T09:33:27Z</time>
      </trkpt>
      <trkpt lat="45.60039" lon="4.60018">
        <ele>568</ele>
        <time>2009-09-29T09:33:35Z</time>
      </trkpt>
      <trkpt lat="45.60044" lon="4.60006">
        <ele>569</ele>
        <time>2009-09-29T09:33:42Z</time>
      </trkpt>
      <trkpt lat="45.60048" lon="4.59994">
        <ele>570</ele>
        <time>2009-09-29T09:33:49Z</time>
      </trkpt>
      <trkpt lat="45.60051" lon="4.59981">
        <ele>570</ele>
        <time>2009-09-29T09:33:56Z</time>
      </trkpt>
      <trkpt lat="45.60056" lon="4.59968">
        <ele>571</ele>
        <time>2009-09-29T09:34:04Z</time>
      </trkpt>
      <trkpt lat="45.60061" lon="4.59955">
        <ele>571</ele>
        <time>2009-09-29T09:34:12Z</time>
      </trkpt>
      <trkpt lat="45.60066" lon="4.59944">
        <ele>572</ele>
        <time>2009-09-29T09:34:20Z</time>
      </trkpt>
      <trkpt lat="45.60071" lon="4.59931">
        <ele>573</ele>
        <time>2009-09-29T09:34:28Z</time>
      </trkpt>
      <trkpt lat="45.60075" lon="4.59919">
        <ele>575</ele>
        <time>2009-09-29T09:34:36Z</time>
      </trkpt>
      <trkpt lat="45.60079" lon="4.59906">
        <ele>576</ele>
        <time>2009-09-29T09:34:45Z</time>
      </trkpt>
      <trkpt lat="45.60084" lon="4.59894">
        <ele>581</ele>
        <time>2009-09-29T09:34:54Z</time>
      </trkpt>
      <trkpt lat="45.60085" lon="4.59881">
        <ele>582</ele>
        <time>2009-09-29T09:35:03Z</time>
      </trkpt>
      <trkpt lat="45.60083" lon="4.59868">
        <ele>578</ele>
        <time>2009-09-29T09:35:12Z</time>
      </trkpt>
      <trkpt lat="45.6008" lon="4.59856">
        <ele>580</ele>
        <time>2009-09-29T09:35:24Z</time>
      </trkpt>
      <trkpt lat="45.60077" lon="4.59843">
        <ele>582</ele>
        <time>2009-09-29T09:35:36Z</time>
      </trkpt>
      <trkpt lat="45.60076" lon="4.5983">
        <ele>587</ele>
        <time>2009-09-29T09:35:47Z</time>
      </trkpt>
      <trkpt lat="45.60086" lon="4.5983">
        <ele>588</ele>
        <time>2009-09-29T09:36:04Z</time>
      </trkpt>
      <trkpt lat="45.60095" lon="4.59826">
        <ele>589</ele>
        <time>2009-09-29T09:36:15Z</time>
      </trkpt>
      <trkpt lat="45.60091" lon="4.59814">
        <ele>590</ele>
        <time>2009-09-29T09:36:31Z</time>
      </trkpt>
      <trkpt lat="45.60088" lon="4.59801">
        <ele>591</ele>
        <time>2009-09-29T09:36:45Z</time>
      </trkpt>
      <trkpt lat="45.60086" lon="4.59788">
        <ele>593</ele>
        <time>2009-09-29T09:36:54Z</time>
      </trkpt>
      <trkpt lat="45.60081" lon="4.59776">
        <ele>591</ele>
        <time>2009-09-29T09:37:05Z</time>
      </trkpt>
      <trkpt lat="45.60079" lon="4.59763">
        <ele>594</ele>
        <time>2009-09-29T09:37:15Z</time>
      </trkpt>
      <trkpt lat="45.60074" lon="4.59752">
        <ele>596</ele>
        <time>2009-09-29T09:37:27Z</time>
      </trkpt>
      <trkpt lat="45.60069" lon="4.5974">
        <ele>599</ele>
        <time>2009-09-29T09:37:39Z</time>
      </trkpt>
      <trkpt lat="45.60064" lon="4.59728">
        <ele>598</ele>
        <time>2009-09-29T09:37:50Z</time>
      </trkpt>
      <trkpt lat="45.60061" lon="4.59715">
        <ele>599</ele>
        <time>2009-09-29T09:38:00Z</time>
      </trkpt>
      <trkpt lat="45.60058" lon="4.59702">
        <ele>599</ele>
        <time>2009-09-29T09:38:11Z</time>
      </trkpt>
      <trkpt lat="45.60056" lon="4.59689">
        <ele>600</ele>
        <time>2009-09-29T09:38:23Z</time>
      </trkpt>
      <trkpt lat="45.60054" lon="4.59675">
        <ele>601</ele>
        <time>2009-09-29T09:38:33Z</time>
      </trkpt>
      <trkpt lat="45.60054" lon="4.59662">
        <ele>607</ele>
        <time>2009-09-29T09:38:45Z</time>
      </trkpt>
      <trkpt lat="45.60056" lon="4.59648">
        <ele>608</ele>
        <time>2009-09-29T09:38:55Z</time>
      </trkpt>
      <trkpt lat="45.60061" lon="4.59637">
        <ele>608</ele>
        <time>2009-09-29T09:39:06Z</time>
      </trkpt>
      <trkpt lat="45.60066" lon="4.59624">
        <ele>610</ele>
        <time>2009-09-29T09:39:19Z</time>
      </trkpt>
      <trkpt lat="45.60068" lon="4.5961">
        <ele>611</ele>
        <time>2009-09-29T09:39:32Z</time>
      </trkpt>
      <trkpt lat="45.60069" lon="4.59597">
        <ele>613</ele>
        <time>2009-09-29T09:39:44Z</time>
      </trkpt>
      <trkpt lat="45.60069" lon="4.59583">
        <ele>618</ele>
        <time>2009-09-29T09:39:56Z</time>
      </trkpt>
      <trkpt lat="45.60069" lon="4.59569">
        <ele>618</ele>
        <time>2009-09-29T09:40:05Z</time>
      </trkpt>
      <trkpt lat="45.60071" lon="4.59556">
        <ele>619</ele>
        <time>2009-09-29T09:40:18Z</time>
      </trkpt>
      <trkpt lat="45.60075" lon="4.59543">
        <ele>620</ele>
        <time>2009-09-29T09:40:29Z</time>
      </trkpt>
      <trkpt lat="45.60076" lon="4.5953">
        <ele>621</ele>
        <time>2009-09-29T09:40:38Z</time>
      </trkpt>
      <trkpt lat="45.60076" lon="4.59516">
        <ele>623</ele>
        <time>2009-09-29T09:40:49Z</time>
      </trkpt>
      <trkpt lat="45.60076" lon="4.59503">
        <ele>625</ele>
        <time>2009-09-29T09:41:00Z</time>
      </trkpt>
      <trkpt lat="45.60075" lon="4.59488">
        <ele>629</ele>
        <time>2009-09-29T09:41:11Z</time>
      </trkpt>
      <trkpt lat="45.60075" lon="4.59474">
        <ele>630</ele>
        <time>2009-09-29T09:41:23Z</time>
      </trkpt>
      <trkpt lat="45.60076" lon="4.5946">
        <ele>632</ele>
        <time>2009-09-29T09:41:34Z</time>
      </trkpt>
      <trkpt lat="45.60079" lon="4.59446">
        <ele>634</ele>
        <time>2009-09-29T09:41:45Z</time>
      </trkpt>
      <trkpt lat="45.60081" lon="4.59432">
        <ele>637</ele>
        <time>2009-09-29T09:42:00Z</time>
      </trkpt>
      <trkpt lat="45.60082" lon="4.59417">
        <ele>642</ele>
        <time>2009-09-29T09:42:13Z</time>
      </trkpt>
      <trkpt lat="45.60084" lon="4.59404">
        <ele>644</ele>
        <time>2009-09-29T09:42:25Z</time>
      </trkpt>
      <trkpt lat="45.60084" lon="4.5939">
        <ele>645</ele>
        <time>2009-09-29T09:42:36Z</time>
      </trkpt>
      <trkpt lat="45.60085" lon="4.59376">
        <ele>646</ele>
        <time>2009-09-29T09:42:48Z</time>
      </trkpt>
      <trkpt lat="45.60083" lon="4.59363">
        <ele>646</ele>
        <time>2009-09-29T09:43:00Z</time>
      </trkpt>
      <trkpt lat="45.60082" lon="4.59349">
        <ele>648</ele>
        <time>2009-09-29T09:43:10Z</time>
      </trkpt>
      <trkpt lat="45.60083" lon="4.59336">
        <ele>651</ele>
        <time>2009-09-29T09:43:21Z</time>
      </trkpt>
      <trkpt lat="45.60082" lon="4.59322">
        <ele>653</ele>
        <time>2009-09-29T09:43:33Z</time>
      </trkpt>
      <trkpt lat="45.60084" lon="4.59309">
        <ele>656</ele>
        <time>2009-09-29T09:45:29Z</time>
      </trkpt>
      <trkpt lat="45.60087" lon="4.59295">
        <ele>657</ele>
        <time>2009-09-29T09:52:54Z</time>
      </trkpt>
      <trkpt lat="45.60088" lon="4.59282">
        <ele>658</ele>
        <time>2009-09-29T09:53:07Z</time>
      </trkpt>
      <trkpt lat="45.60092" lon="4.59269">
        <ele>659</ele>
        <time>2009-09-29T09:53:18Z</time>
      </trkpt>
      <trkpt lat="45.60093" lon="4.59256">
        <ele>661</ele>
        <time>2009-09-29T09:53:28Z</time>
      </trkpt>
      <trkpt lat="45.60097" lon="4.59242">
        <ele>667</ele>
        <time>2009-09-29T09:53:38Z</time>
      </trkpt>
      <trkpt lat="45.60098" lon="4.59228">
        <ele>669</ele>
        <time>2009-09-29T09:53:48Z</time>
      </trkpt>
      <trkpt lat="45.601" lon="4.59214">
        <ele>671</ele>
        <time>2009-09-29T09:54:01Z</time>
      </trkpt>
      <trkpt lat="45.60102" lon="4.592">
        <ele>673</ele>
        <time>2009-09-29T09:54:13Z</time>
      </trkpt>
      <trkpt lat="45.60106" lon="4.59188">
        <ele>674</ele>
        <time>2009-09-29T09:54:23Z</time>
      </trkpt>
      <trkpt lat="45.60112" lon="4.59178">
        <ele>675</ele>
        <time>2009-09-29T09:54:35Z</time>
      </trkpt>
      <trkpt lat="45.60117" lon="4.59166">
        <ele>685</ele>
        <time>2009-09-29T09:54:52Z</time>
      </trkpt>
      <trkpt lat="45.60118" lon="4.59152">
        <ele>685</ele>
        <time>2009-09-29T09:55:01Z</time>
      </trkpt>
      <trkpt lat="45.6012" lon="4.59139">
        <ele>687</ele>
        <time>2009-09-29T09:55:09Z</time>
      </trkpt>
      <trkpt lat="45.60119" lon="4.59125">
        <ele>688</ele>
        <time>2009-09-29T09:55:24Z</time>
      </trkpt>
      <trkpt lat="45.60122" lon="4.59111">
        <ele>689</ele>
        <time>2009-09-29T09:55:34Z</time>
      </trkpt>
      <trkpt lat="45.60122" lon="4.59098">
        <ele>690</ele>
        <time>2009-09-29T09:55:43Z</time>
      </trkpt>
      <trkpt lat="45.60115" lon="4.59088">
        <ele>690</ele>
        <time>2009-09-29T09:55:51Z</time>
      </trkpt>
      <trkpt lat="45.60112" lon="4.59074">
        <ele>698</ele>
        <time>2009-09-29T09:56:01Z</time>
      </trkpt>
      <trkpt lat="45.60114" lon="4.59061">
        <ele>699</ele>
        <time>2009-09-29T09:56:12Z</time>
      </trkpt>
      <trkpt lat="45.60117" lon="4.59048">
        <ele>700</ele>
        <time>2009-09-29T09:56:33Z</time>
      </trkpt>
      <trkpt lat="45.60121" lon="4.59036">
        <ele>701</ele>
        <time>2009-09-29T09:56:45Z</time>
      </trkpt>
      <trkpt lat="45.60124" lon="4.59024">
        <ele>702</ele>
        <time>2009-09-29T09:57:07Z</time>
      </trkpt>
      <trkpt lat="45.60122" lon="4.59011">
        <ele>702</ele>
        <time>2009-09-29T09:57:22Z</time>
      </trkpt>
      <trkpt lat="45.60119" lon="4.58998">
        <ele>708</ele>
        <time>2009-09-29T09:57:37Z</time>
      </trkpt>
      <trkpt lat="45.60117" lon="4.58984">
        <ele>708</ele>
        <time>2009-09-29T09:57:49Z</time>
      </trkpt>
      <trkpt lat="45.60117" lon="4.58971">
        <ele>709</ele>
        <time>2009-09-29T09:58:13Z</time>
      </trkpt>
      <trkpt lat="45.60125" lon="4.58962">
        <ele>709</ele>
        <time>2009-09-29T09:58:30Z</time>
      </trkpt>
      <trkpt lat="45.60127" lon="4.58948">
        <ele>710</ele>
        <time>2009-09-29T09:58:42Z</time>
      </trkpt>
      <trkpt lat="45.60131" lon="4.58936">
        <ele>710</ele>
        <time>2009-09-29T09:58:49Z</time>
      </trkpt>
      <trkpt lat="45.60133" lon="4.58923">
        <ele>710</ele>
        <time>2009-09-29T09:59:29Z</time>
      </trkpt>
      <trkpt lat="45.6014" lon="4.58912">
        <ele>712</ele>
        <time>2009-09-29T09:59:39Z</time>
      </trkpt>
      <trkpt lat="45.6015" lon="4.58907">
        <ele>712</ele>
        <time>2009-09-29T09:59:49Z</time>
      </trkpt>
      <trkpt lat="45.6016" lon="4.58904">
        <ele>712</ele>
        <time>2009-09-29T09:59:58Z</time>
      </trkpt>
      <trkpt lat="45.6017" lon="4.58906">
        <ele>713</ele>
        <time>2009-09-29T10:00:08Z</time>
      </trkpt>
      <trkpt lat="45.60179" lon="4.58903">
        <ele>714</ele>
        <time>2009-09-29T10:00:20Z</time>
      </trkpt>
      <trkpt lat="45.60189" lon="4.58904">
        <ele>715</ele>
        <time>2009-09-29T10:00:29Z</time>
      </trkpt>
      <trkpt lat="45.60199" lon="4.58905">
        <ele>716</ele>
        <time>2009-09-29T10:00:39Z</time>
      </trkpt>
      <trkpt lat="45.60208" lon="4.58908">
        <ele>716</ele>
        <time>2009-09-29T10:01:10Z</time>
      </trkpt>
    </trkseg>
  </trk>
</gpx>